﻿<?xml version="1.0" encoding="utf-8" standalone="yes"?>
<gpx version="1.0" creator="CanWay - http://www.canwaygps.com" xmlns:xsi="http://www.w3.org/2001/XMLSchema-instance" xmlns="http://www.topografix.com/GPX/1/0" xsi:schemaLocation="http://www.topografix.com/GPX/1/0 http://www.topografix.com/GPX/1/0/gpx.xsd">
<time>2026-04-03T17:15:19Z</time>
<bounds minlat="35.830930" minlon="139.477055" maxlat="35.930426" maxlon="139.581119" />
<trk>
<name>2026-04-03 09-32</name>
<trkseg>
<trkpt lat="35.830930" lon="139.562263">
<ele>14.4</ele>
<time>2026-04-03T00:32:16Z</time>
<speed>0.3</speed>
</trkpt>
<trkpt lat="35.830934" lon="139.562289">
<ele>13.8</ele>
<time>2026-04-03T00:34:37Z</time>
<speed>0.1</speed>
</trkpt>
<trkpt lat="35.830967" lon="139.562243">
<ele>13.8</ele>
<time>2026-04-03T00:36:02Z</time>
<speed>2.4</speed>
</trkpt>
<trkpt lat="35.830986" lon="139.562230">
<ele>13.8</ele>
<time>2026-04-03T00:36:03Z</time>
<speed>2.2</speed>
</trkpt>
<trkpt lat="35.831000" lon="139.562212">
<ele>13.8</ele>
<time>2026-04-03T00:36:04Z</time>
<speed>2.5</speed>
</trkpt>
<trkpt lat="35.831014" lon="139.562185">
<ele>13.8</ele>
<time>2026-04-03T00:36:05Z</time>
<speed>2.3</speed>
</trkpt>
<trkpt lat="35.831053" lon="139.562153">
<ele>13.8</ele>
<time>2026-04-03T00:36:08Z</time>
<speed>2.6</speed>
</trkpt>
<trkpt lat="35.831123" lon="139.562185">
<ele>13.8</ele>
<time>2026-04-03T00:36:10Z</time>
<speed>2.0</speed>
</trkpt>
<trkpt lat="35.831151" lon="139.562212">
<ele>14.0</ele>
<time>2026-04-03T00:36:12Z</time>
<speed>3.1</speed>
</trkpt>
<trkpt lat="35.831251" lon="139.562320">
<ele>14.0</ele>
<time>2026-04-03T00:36:17Z</time>
<speed>2.3</speed>
</trkpt>
<trkpt lat="35.831318" lon="139.562381">
<ele>14.0</ele>
<time>2026-04-03T00:36:20Z</time>
<speed>2.7</speed>
</trkpt>
<trkpt lat="35.831360" lon="139.562333">
<ele>14.0</ele>
<time>2026-04-03T00:36:21Z</time>
<speed>2.9</speed>
</trkpt>
<trkpt lat="35.831399" lon="139.562293">
<ele>14.0</ele>
<time>2026-04-03T00:36:25Z</time>
<speed>2.4</speed>
</trkpt>
<trkpt lat="35.831447" lon="139.562250">
<ele>14.0</ele>
<time>2026-04-03T00:36:26Z</time>
<speed>1.5</speed>
</trkpt>
<trkpt lat="35.831472" lon="139.562237">
<ele>14.0</ele>
<time>2026-04-03T00:36:28Z</time>
<speed>2.2</speed>
</trkpt>
<trkpt lat="35.831494" lon="139.562278">
<ele>14.0</ele>
<time>2026-04-03T00:36:30Z</time>
<speed>1.8</speed>
</trkpt>
<trkpt lat="35.831552" lon="139.562347">
<ele>14.0</ele>
<time>2026-04-03T00:36:35Z</time>
<speed>3.6</speed>
</trkpt>
<trkpt lat="35.831569" lon="139.562395">
<ele>14.0</ele>
<time>2026-04-03T00:36:36Z</time>
<speed>3.7</speed>
</trkpt>
<trkpt lat="35.831575" lon="139.562446">
<ele>14.0</ele>
<time>2026-04-03T00:36:38Z</time>
<speed>4.1</speed>
</trkpt>
<trkpt lat="35.831606" lon="139.562598">
<ele>14.0</ele>
<time>2026-04-03T00:36:42Z</time>
<speed>4.4</speed>
</trkpt>
<trkpt lat="35.831636" lon="139.562741">
<ele>14.0</ele>
<time>2026-04-03T00:36:44Z</time>
<speed>4.6</speed>
</trkpt>
<trkpt lat="35.831703" lon="139.563087">
<ele>14.0</ele>
<time>2026-04-03T00:36:53Z</time>
<speed>5.4</speed>
</trkpt>
<trkpt lat="35.831760" lon="139.563395">
<ele>14.0</ele>
<time>2026-04-03T00:36:59Z</time>
<speed>5.1</speed>
</trkpt>
<trkpt lat="35.831797" lon="139.563620">
<ele>14.0</ele>
<time>2026-04-03T00:37:02Z</time>
<speed>4.9</speed>
</trkpt>
<trkpt lat="35.831840" lon="139.563838">
<ele>14.2</ele>
<time>2026-04-03T00:37:05Z</time>
<speed>4.3</speed>
</trkpt>
<trkpt lat="35.831882" lon="139.564015">
<ele>15.2</ele>
<time>2026-04-03T00:37:10Z</time>
<speed>3.6</speed>
</trkpt>
<trkpt lat="35.831953" lon="139.564094">
<ele>15.6</ele>
<time>2026-04-03T00:37:11Z</time>
<speed>2.8</speed>
</trkpt>
<trkpt lat="35.831972" lon="139.564114">
<ele>15.8</ele>
<time>2026-04-03T00:37:12Z</time>
<speed>3.8</speed>
</trkpt>
<trkpt lat="35.831975" lon="139.564151">
<ele>16.2</ele>
<time>2026-04-03T00:37:13Z</time>
<speed>1.3</speed>
</trkpt>
<trkpt lat="35.831980" lon="139.564181">
<ele>16.4</ele>
<time>2026-04-03T00:37:15Z</time>
<speed>0.5</speed>
</trkpt>
<trkpt lat="35.831988" lon="139.564213">
<ele>17.2</ele>
<time>2026-04-03T00:37:20Z</time>
<speed>2.7</speed>
</trkpt>
<trkpt lat="35.832006" lon="139.564245">
<ele>17.2</ele>
<time>2026-04-03T00:37:21Z</time>
<speed>4.6</speed>
</trkpt>
<trkpt lat="35.832032" lon="139.564331">
<ele>17.2</ele>
<time>2026-04-03T00:37:23Z</time>
<speed>5.3</speed>
</trkpt>
<trkpt lat="35.832069" lon="139.564473">
<ele>17.2</ele>
<time>2026-04-03T00:37:27Z</time>
<speed>5.4</speed>
</trkpt>
<trkpt lat="35.832088" lon="139.564599">
<ele>17.2</ele>
<time>2026-04-03T00:37:28Z</time>
<speed>5.2</speed>
</trkpt>
<trkpt lat="35.832130" lon="139.564760">
<ele>16.8</ele>
<time>2026-04-03T00:37:31Z</time>
<speed>4.9</speed>
</trkpt>
<trkpt lat="35.832173" lon="139.564940">
<ele>16.6</ele>
<time>2026-04-03T00:37:32Z</time>
<speed>4.9</speed>
</trkpt>
<trkpt lat="35.832234" lon="139.565262">
<ele>16.2</ele>
<time>2026-04-03T00:37:40Z</time>
<speed>5.0</speed>
</trkpt>
<trkpt lat="35.832334" lon="139.565726">
<ele>16.0</ele>
<time>2026-04-03T00:37:48Z</time>
<speed>5.1</speed>
</trkpt>
<trkpt lat="35.832456" lon="139.566289">
<ele>15.8</ele>
<time>2026-04-03T00:37:57Z</time>
<speed>5.1</speed>
</trkpt>
<trkpt lat="35.832569" lon="139.566633">
<ele>15.6</ele>
<time>2026-04-03T00:38:06Z</time>
<speed>5.0</speed>
</trkpt>
<trkpt lat="35.832656" lon="139.566826">
<ele>15.6</ele>
<time>2026-04-03T00:38:10Z</time>
<speed>4.9</speed>
</trkpt>
<trkpt lat="35.832712" lon="139.566946">
<ele>15.6</ele>
<time>2026-04-03T00:38:12Z</time>
<speed>5.0</speed>
</trkpt>
<trkpt lat="35.832956" lon="139.567295">
<ele>15.6</ele>
<time>2026-04-03T00:38:20Z</time>
<speed>5.3</speed>
</trkpt>
<trkpt lat="35.833095" lon="139.567499">
<ele>15.6</ele>
<time>2026-04-03T00:38:25Z</time>
<speed>5.3</speed>
</trkpt>
<trkpt lat="35.833204" lon="139.567657">
<ele>15.6</ele>
<time>2026-04-03T00:38:29Z</time>
<speed>5.4</speed>
</trkpt>
<trkpt lat="35.833267" lon="139.567746">
<ele>15.6</ele>
<time>2026-04-03T00:38:30Z</time>
<speed>5.3</speed>
</trkpt>
<trkpt lat="35.833434" lon="139.567936">
<ele>15.6</ele>
<time>2026-04-03T00:38:35Z</time>
<speed>5.0</speed>
</trkpt>
<trkpt lat="35.833515" lon="139.568014">
<ele>15.6</ele>
<time>2026-04-03T00:38:37Z</time>
<speed>5.1</speed>
</trkpt>
<trkpt lat="35.833621" lon="139.568124">
<ele>15.6</ele>
<time>2026-04-03T00:38:40Z</time>
<speed>5.3</speed>
</trkpt>
<trkpt lat="35.833857" lon="139.568328">
<ele>15.6</ele>
<time>2026-04-03T00:38:46Z</time>
<speed>5.5</speed>
</trkpt>
<trkpt lat="35.834131" lon="139.568592">
<ele>15.6</ele>
<time>2026-04-03T00:38:53Z</time>
<speed>5.6</speed>
</trkpt>
<trkpt lat="35.834414" lon="139.568855">
<ele>15.6</ele>
<time>2026-04-03T00:39:00Z</time>
<speed>5.6</speed>
</trkpt>
<trkpt lat="35.834485" lon="139.568985">
<ele>15.6</ele>
<time>2026-04-03T00:39:03Z</time>
<speed>5.8</speed>
</trkpt>
<trkpt lat="35.834580" lon="139.569135">
<ele>15.8</ele>
<time>2026-04-03T00:39:06Z</time>
<speed>5.8</speed>
</trkpt>
<trkpt lat="35.834659" lon="139.569272">
<ele>15.8</ele>
<time>2026-04-03T00:39:07Z</time>
<speed>5.9</speed>
</trkpt>
<trkpt lat="35.834761" lon="139.569537">
<ele>15.8</ele>
<time>2026-04-03T00:39:13Z</time>
<speed>5.9</speed>
</trkpt>
<trkpt lat="35.834879" lon="139.569843">
<ele>15.8</ele>
<time>2026-04-03T00:39:18Z</time>
<speed>5.9</speed>
</trkpt>
<trkpt lat="35.834912" lon="139.569967">
<ele>15.8</ele>
<time>2026-04-03T00:39:20Z</time>
<speed>4.5</speed>
</trkpt>
<trkpt lat="35.834973" lon="139.570205">
<ele>15.8</ele>
<time>2026-04-03T00:39:25Z</time>
<speed>2.7</speed>
</trkpt>
<trkpt lat="35.835016" lon="139.570408">
<ele>15.6</ele>
<time>2026-04-03T00:39:32Z</time>
<speed>2.6</speed>
</trkpt>
<trkpt lat="35.835061" lon="139.570573">
<ele>15.6</ele>
<time>2026-04-03T00:39:38Z</time>
<speed>3.1</speed>
</trkpt>
<trkpt lat="35.835113" lon="139.570735">
<ele>15.6</ele>
<time>2026-04-03T00:39:43Z</time>
<speed>3.2</speed>
</trkpt>
<trkpt lat="35.835139" lon="139.570865">
<ele>15.6</ele>
<time>2026-04-03T00:39:47Z</time>
<speed>3.1</speed>
</trkpt>
<trkpt lat="35.835250" lon="139.571109">
<ele>15.4</ele>
<time>2026-04-03T00:39:54Z</time>
<speed>3.1</speed>
</trkpt>
<trkpt lat="35.835363" lon="139.571324">
<ele>15.4</ele>
<time>2026-04-03T00:40:01Z</time>
<speed>3.2</speed>
</trkpt>
<trkpt lat="35.835491" lon="139.571562">
<ele>15.4</ele>
<time>2026-04-03T00:40:11Z</time>
<speed>3.1</speed>
</trkpt>
<trkpt lat="35.835670" lon="139.571782">
<ele>15.2</ele>
<time>2026-04-03T00:40:20Z</time>
<speed>2.7</speed>
</trkpt>
<trkpt lat="35.835815" lon="139.571975">
<ele>14.8</ele>
<time>2026-04-03T00:40:28Z</time>
<speed>2.7</speed>
</trkpt>
<trkpt lat="35.835975" lon="139.572141">
<ele>14.6</ele>
<time>2026-04-03T00:40:36Z</time>
<speed>2.9</speed>
</trkpt>
<trkpt lat="35.836069" lon="139.572253">
<ele>14.6</ele>
<time>2026-04-03T00:40:41Z</time>
<speed>3.1</speed>
</trkpt>
<trkpt lat="35.836108" lon="139.572303">
<ele>14.6</ele>
<time>2026-04-03T00:40:43Z</time>
<speed>2.3</speed>
</trkpt>
<trkpt lat="35.836210" lon="139.572433">
<ele>14.6</ele>
<time>2026-04-03T00:40:50Z</time>
<speed>2.6</speed>
</trkpt>
<trkpt lat="35.836310" lon="139.572555">
<ele>14.6</ele>
<time>2026-04-03T00:40:56Z</time>
<speed>2.8</speed>
</trkpt>
<trkpt lat="35.836445" lon="139.572739">
<ele>14.6</ele>
<time>2026-04-03T00:41:04Z</time>
<speed>2.8</speed>
</trkpt>
<trkpt lat="35.836580" lon="139.572924">
<ele>14.6</ele>
<time>2026-04-03T00:41:12Z</time>
<speed>2.9</speed>
</trkpt>
<trkpt lat="35.836715" lon="139.573115">
<ele>14.8</ele>
<time>2026-04-03T00:41:20Z</time>
<speed>2.8</speed>
</trkpt>
<trkpt lat="35.836861" lon="139.573333">
<ele>14.6</ele>
<time>2026-04-03T00:41:29Z</time>
<speed>2.4</speed>
</trkpt>
<trkpt lat="35.836961" lon="139.573510">
<ele>14.6</ele>
<time>2026-04-03T00:41:37Z</time>
<speed>1.1</speed>
</trkpt>
<trkpt lat="35.836983" lon="139.573577">
<ele>14.6</ele>
<time>2026-04-03T00:41:42Z</time>
<speed>2.2</speed>
</trkpt>
<trkpt lat="35.837022" lon="139.573695">
<ele>14.6</ele>
<time>2026-04-03T00:41:48Z</time>
<speed>2.5</speed>
</trkpt>
<trkpt lat="35.837070" lon="139.573786">
<ele>14.6</ele>
<time>2026-04-03T00:41:54Z</time>
<speed>3.7</speed>
</trkpt>
<trkpt lat="35.837124" lon="139.574003">
<ele>14.2</ele>
<time>2026-04-03T00:41:59Z</time>
<speed>4.4</speed>
</trkpt>
<trkpt lat="35.837153" lon="139.574253">
<ele>14.2</ele>
<time>2026-04-03T00:42:06Z</time>
<speed>4.7</speed>
</trkpt>
<trkpt lat="35.837157" lon="139.574655">
<ele>14.4</ele>
<time>2026-04-03T00:42:13Z</time>
<speed>5.0</speed>
</trkpt>
<trkpt lat="35.837096" lon="139.575253">
<ele>14.4</ele>
<time>2026-04-03T00:42:24Z</time>
<speed>5.0</speed>
</trkpt>
<trkpt lat="35.837040" lon="139.575803">
<ele>14.2</ele>
<time>2026-04-03T00:42:33Z</time>
<speed>5.0</speed>
</trkpt>
<trkpt lat="35.836983" lon="139.576406">
<ele>14.2</ele>
<time>2026-04-03T00:42:43Z</time>
<speed>5.1</speed>
</trkpt>
<trkpt lat="35.836931" lon="139.576956">
<ele>14.4</ele>
<time>2026-04-03T00:42:53Z</time>
<speed>5.2</speed>
</trkpt>
<trkpt lat="35.836877" lon="139.577420">
<ele>14.2</ele>
<time>2026-04-03T00:43:01Z</time>
<speed>5.0</speed>
</trkpt>
<trkpt lat="35.836866" lon="139.577500">
<ele>14.2</ele>
<time>2026-04-03T00:43:03Z</time>
<speed>5.0</speed>
</trkpt>
<trkpt lat="35.836858" lon="139.577555">
<ele>14.2</ele>
<time>2026-04-03T00:43:04Z</time>
<speed>5.1</speed>
</trkpt>
<trkpt lat="35.836761" lon="139.577890">
<ele>14.2</ele>
<time>2026-04-03T00:43:10Z</time>
<speed>4.7</speed>
</trkpt>
<trkpt lat="35.836701" lon="139.578062">
<ele>14.2</ele>
<time>2026-04-03T00:43:14Z</time>
<speed>4.8</speed>
</trkpt>
<trkpt lat="35.836629" lon="139.578196">
<ele>14.2</ele>
<time>2026-04-03T00:43:17Z</time>
<speed>4.8</speed>
</trkpt>
<trkpt lat="35.836561" lon="139.578331">
<ele>14.2</ele>
<time>2026-04-03T00:43:20Z</time>
<speed>4.8</speed>
</trkpt>
<trkpt lat="35.836422" lon="139.578598">
<ele>14.4</ele>
<time>2026-04-03T00:43:26Z</time>
<speed>5.3</speed>
</trkpt>
<trkpt lat="35.836301" lon="139.578777">
<ele>14.2</ele>
<time>2026-04-03T00:43:30Z</time>
<speed>5.6</speed>
</trkpt>
<trkpt lat="35.836240" lon="139.578877">
<ele>14.4</ele>
<time>2026-04-03T00:43:32Z</time>
<speed>5.8</speed>
</trkpt>
<trkpt lat="35.836207" lon="139.578927">
<ele>14.4</ele>
<time>2026-04-03T00:43:33Z</time>
<speed>5.5</speed>
</trkpt>
<trkpt lat="35.835946" lon="139.579314">
<ele>14.2</ele>
<time>2026-04-03T00:43:41Z</time>
<speed>5.1</speed>
</trkpt>
<trkpt lat="35.835696" lon="139.579700">
<ele>14.0</ele>
<time>2026-04-03T00:43:49Z</time>
<speed>4.9</speed>
</trkpt>
<trkpt lat="35.835548" lon="139.579891">
<ele>14.0</ele>
<time>2026-04-03T00:43:55Z</time>
<speed>2.4</speed>
</trkpt>
<trkpt lat="35.835502" lon="139.579942">
<ele>14.0</ele>
<time>2026-04-03T00:43:58Z</time>
<speed>2.0</speed>
</trkpt>
<trkpt lat="35.835527" lon="139.579974">
<ele>14.0</ele>
<time>2026-04-03T00:43:59Z</time>
<speed>3.2</speed>
</trkpt>
<trkpt lat="35.835614" lon="139.580064">
<ele>14.2</ele>
<time>2026-04-03T00:44:03Z</time>
<speed>3.8</speed>
</trkpt>
<trkpt lat="35.835640" lon="139.580092">
<ele>14.4</ele>
<time>2026-04-03T00:44:04Z</time>
<speed>4.0</speed>
</trkpt>
<trkpt lat="35.835858" lon="139.580319">
<ele>15.0</ele>
<time>2026-04-03T00:44:12Z</time>
<speed>2.1</speed>
</trkpt>
<trkpt lat="35.835940" lon="139.580381">
<ele>15.2</ele>
<time>2026-04-03T00:44:17Z</time>
<speed>0.2</speed>
</trkpt>
<trkpt lat="35.835994" lon="139.580459">
<ele>15.0</ele>
<time>2026-04-03T00:45:03Z</time>
<speed>2.0</speed>
</trkpt>
<trkpt lat="35.835987" lon="139.580491">
<ele>15.0</ele>
<time>2026-04-03T00:45:04Z</time>
<speed>4.4</speed>
</trkpt>
<trkpt lat="35.835963" lon="139.580542">
<ele>15.0</ele>
<time>2026-04-03T00:45:08Z</time>
<speed>4.8</speed>
</trkpt>
<trkpt lat="35.836015" lon="139.580644">
<ele>15.0</ele>
<time>2026-04-03T00:45:09Z</time>
<speed>5.3</speed>
</trkpt>
<trkpt lat="35.836037" lon="139.580711">
<ele>14.8</ele>
<time>2026-04-03T00:45:11Z</time>
<speed>5.1</speed>
</trkpt>
<trkpt lat="35.836063" lon="139.580749">
<ele>14.8</ele>
<time>2026-04-03T00:45:12Z</time>
<speed>4.7</speed>
</trkpt>
<trkpt lat="35.836107" lon="139.580878">
<ele>14.8</ele>
<time>2026-04-03T00:45:13Z</time>
<speed>4.7</speed>
</trkpt>
<trkpt lat="35.836168" lon="139.581017">
<ele>14.8</ele>
<time>2026-04-03T00:45:15Z</time>
<speed>3.2</speed>
</trkpt>
<trkpt lat="35.836202" lon="139.581119">
<ele>14.8</ele>
<time>2026-04-03T00:45:19Z</time>
<speed>4.6</speed>
</trkpt>
<trkpt lat="35.836442" lon="139.580993">
<ele>14.8</ele>
<time>2026-04-03T00:45:22Z</time>
<speed>5.4</speed>
</trkpt>
<trkpt lat="35.836705" lon="139.580851">
<ele>15.2</ele>
<time>2026-04-03T00:45:28Z</time>
<speed>5.4</speed>
</trkpt>
<trkpt lat="35.837100" lon="139.580644">
<ele>15.4</ele>
<time>2026-04-03T00:45:35Z</time>
<speed>5.4</speed>
</trkpt>
<trkpt lat="35.837381" lon="139.580561">
<ele>15.4</ele>
<time>2026-04-03T00:45:44Z</time>
<speed>4.8</speed>
</trkpt>
<trkpt lat="35.837575" lon="139.580504">
<ele>15.4</ele>
<time>2026-04-03T00:45:48Z</time>
<speed>5.2</speed>
</trkpt>
<trkpt lat="35.837665" lon="139.580469">
<ele>15.4</ele>
<time>2026-04-03T00:45:50Z</time>
<speed>5.3</speed>
</trkpt>
<trkpt lat="35.837991" lon="139.580365">
<ele>15.6</ele>
<time>2026-04-03T00:45:57Z</time>
<speed>5.4</speed>
</trkpt>
<trkpt lat="35.838190" lon="139.580306">
<ele>15.8</ele>
<time>2026-04-03T00:45:59Z</time>
<speed>5.4</speed>
</trkpt>
<trkpt lat="35.838618" lon="139.580218">
<ele>15.8</ele>
<time>2026-04-03T00:46:10Z</time>
<speed>5.3</speed>
</trkpt>
<trkpt lat="35.839090" lon="139.580127">
<ele>15.8</ele>
<time>2026-04-03T00:46:20Z</time>
<speed>5.5</speed>
</trkpt>
<trkpt lat="35.839423" lon="139.580041">
<ele>15.6</ele>
<time>2026-04-03T00:46:27Z</time>
<speed>5.3</speed>
</trkpt>
<trkpt lat="35.839699" lon="139.579923">
<ele>15.6</ele>
<time>2026-04-03T00:46:34Z</time>
<speed>5.1</speed>
</trkpt>
<trkpt lat="35.839964" lon="139.579751">
<ele>15.6</ele>
<time>2026-04-03T00:46:42Z</time>
<speed>1.7</speed>
</trkpt>
<trkpt lat="35.840103" lon="139.579620">
<ele>15.6</ele>
<time>2026-04-03T00:46:46Z</time>
<speed>3.6</speed>
</trkpt>
<trkpt lat="35.840310" lon="139.579392">
<ele>15.6</ele>
<time>2026-04-03T00:46:50Z</time>
<speed>5.0</speed>
</trkpt>
<trkpt lat="35.840447" lon="139.579220">
<ele>15.6</ele>
<time>2026-04-03T00:46:57Z</time>
<speed>5.3</speed>
</trkpt>
<trkpt lat="35.840825" lon="139.578775">
<ele>15.8</ele>
<time>2026-04-03T00:47:09Z</time>
<speed>5.2</speed>
</trkpt>
<trkpt lat="35.840971" lon="139.578582">
<ele>15.8</ele>
<time>2026-04-03T00:47:10Z</time>
<speed>4.8</speed>
</trkpt>
<trkpt lat="35.841082" lon="139.578458">
<ele>15.6</ele>
<time>2026-04-03T00:47:17Z</time>
<speed>1.9</speed>
</trkpt>
<trkpt lat="35.841177" lon="139.578335">
<ele>15.6</ele>
<time>2026-04-03T00:47:21Z</time>
<speed>3.8</speed>
</trkpt>
<trkpt lat="35.841271" lon="139.578228">
<ele>15.4</ele>
<time>2026-04-03T00:47:25Z</time>
<speed>3.2</speed>
</trkpt>
<trkpt lat="35.841417" lon="139.578059">
<ele>15.2</ele>
<time>2026-04-03T00:47:30Z</time>
<speed>5.1</speed>
</trkpt>
<trkpt lat="35.841558" lon="139.577884">
<ele>15.2</ele>
<time>2026-04-03T00:47:37Z</time>
<speed>5.3</speed>
</trkpt>
<trkpt lat="35.841895" lon="139.577495">
<ele>15.4</ele>
<time>2026-04-03T00:47:47Z</time>
<speed>5.3</speed>
</trkpt>
<trkpt lat="35.842073" lon="139.577265">
<ele>15.6</ele>
<time>2026-04-03T00:47:49Z</time>
<speed>5.4</speed>
</trkpt>
<trkpt lat="35.842352" lon="139.576935">
<ele>15.6</ele>
<time>2026-04-03T00:47:58Z</time>
<speed>5.6</speed>
</trkpt>
<trkpt lat="35.842667" lon="139.576543">
<ele>15.8</ele>
<time>2026-04-03T00:48:09Z</time>
<speed>4.6</speed>
</trkpt>
<trkpt lat="35.842917" lon="139.576208">
<ele>15.6</ele>
<time>2026-04-03T00:48:17Z</time>
<speed>2.5</speed>
</trkpt>
<trkpt lat="35.842936" lon="139.576186">
<ele>15.4</ele>
<time>2026-04-03T00:48:20Z</time>
<speed>3.3</speed>
</trkpt>
<trkpt lat="35.842924" lon="139.576152">
<ele>15.4</ele>
<time>2026-04-03T00:48:21Z</time>
<speed>1.4</speed>
</trkpt>
<trkpt lat="35.842907" lon="139.576080">
<ele>15.4</ele>
<time>2026-04-03T00:48:26Z</time>
<speed>1.3</speed>
</trkpt>
<trkpt lat="35.842930" lon="139.576032">
<ele>15.2</ele>
<time>2026-04-03T00:48:30Z</time>
<speed>3.1</speed>
</trkpt>
<trkpt lat="35.842953" lon="139.576012">
<ele>15.2</ele>
<time>2026-04-03T00:48:31Z</time>
<speed>3.7</speed>
</trkpt>
<trkpt lat="35.842982" lon="139.576033">
<ele>15.0</ele>
<time>2026-04-03T00:48:32Z</time>
<speed>4.0</speed>
</trkpt>
<trkpt lat="35.843000" lon="139.576071">
<ele>14.8</ele>
<time>2026-04-03T00:48:33Z</time>
<speed>2.5</speed>
</trkpt>
<trkpt lat="35.843015" lon="139.576103">
<ele>14.6</ele>
<time>2026-04-03T00:48:35Z</time>
<speed>1.6</speed>
</trkpt>
<trkpt lat="35.843036" lon="139.576079">
<ele>14.6</ele>
<time>2026-04-03T00:48:36Z</time>
<speed>2.0</speed>
</trkpt>
<trkpt lat="35.843106" lon="139.576015">
<ele>14.6</ele>
<time>2026-04-03T00:48:37Z</time>
<speed>3.6</speed>
</trkpt>
<trkpt lat="35.843254" lon="139.575854">
<ele>14.6</ele>
<time>2026-04-03T00:48:41Z</time>
<speed>4.8</speed>
</trkpt>
<trkpt lat="35.843404" lon="139.575672">
<ele>15.2</ele>
<time>2026-04-03T00:48:47Z</time>
<speed>5.4</speed>
</trkpt>
<trkpt lat="35.843689" lon="139.575328">
<ele>15.4</ele>
<time>2026-04-03T00:48:56Z</time>
<speed>5.5</speed>
</trkpt>
<trkpt lat="35.843900" lon="139.575022">
<ele>15.4</ele>
<time>2026-04-03T00:49:06Z</time>
<speed>5.6</speed>
</trkpt>
<trkpt lat="35.844119" lon="139.574591">
<ele>15.4</ele>
<time>2026-04-03T00:49:16Z</time>
<speed>5.7</speed>
</trkpt>
<trkpt lat="35.844256" lon="139.574161">
<ele>15.6</ele>
<time>2026-04-03T00:49:24Z</time>
<speed>5.8</speed>
</trkpt>
<trkpt lat="35.844332" lon="139.573730">
<ele>15.6</ele>
<time>2026-04-03T00:49:27Z</time>
<speed>5.7</speed>
</trkpt>
<trkpt lat="35.844456" lon="139.573048">
<ele>15.4</ele>
<time>2026-04-03T00:49:35Z</time>
<speed>5.6</speed>
</trkpt>
<trkpt lat="35.844521" lon="139.572917">
<ele>15.4</ele>
<time>2026-04-03T00:49:39Z</time>
<speed>6.2</speed>
</trkpt>
<trkpt lat="35.844558" lon="139.572686">
<ele>15.4</ele>
<time>2026-04-03T00:49:42Z</time>
<speed>8.0</speed>
</trkpt>
<trkpt lat="35.844602" lon="139.572431">
<ele>15.4</ele>
<time>2026-04-03T00:49:46Z</time>
<speed>8.9</speed>
</trkpt>
<trkpt lat="35.844626" lon="139.572287">
<ele>15.4</ele>
<time>2026-04-03T00:49:47Z</time>
<speed>7.7</speed>
</trkpt>
<trkpt lat="35.844656" lon="139.572093">
<ele>15.0</ele>
<time>2026-04-03T00:49:50Z</time>
<speed>6.6</speed>
</trkpt>
<trkpt lat="35.844687" lon="139.571801">
<ele>13.6</ele>
<time>2026-04-03T00:49:54Z</time>
<speed>5.0</speed>
</trkpt>
<trkpt lat="35.844693" lon="139.571624">
<ele>13.6</ele>
<time>2026-04-03T00:49:56Z</time>
<speed>4.8</speed>
</trkpt>
<trkpt lat="35.844695" lon="139.571450">
<ele>13.6</ele>
<time>2026-04-03T00:50:00Z</time>
<speed>5.2</speed>
</trkpt>
<trkpt lat="35.844715" lon="139.571310">
<ele>13.6</ele>
<time>2026-04-03T00:50:03Z</time>
<speed>5.7</speed>
</trkpt>
<trkpt lat="35.844769" lon="139.570994">
<ele>14.8</ele>
<time>2026-04-03T00:50:07Z</time>
<speed>5.7</speed>
</trkpt>
<trkpt lat="35.844824" lon="139.570664">
<ele>15.4</ele>
<time>2026-04-03T00:50:11Z</time>
<speed>5.9</speed>
</trkpt>
<trkpt lat="35.844961" lon="139.569964">
<ele>15.6</ele>
<time>2026-04-03T00:50:21Z</time>
<speed>5.9</speed>
</trkpt>
<trkpt lat="35.845028" lon="139.569696">
<ele>15.8</ele>
<time>2026-04-03T00:50:30Z</time>
<speed>6.0</speed>
</trkpt>
<trkpt lat="35.845113" lon="139.569446">
<ele>15.8</ele>
<time>2026-04-03T00:50:31Z</time>
<speed>5.9</speed>
</trkpt>
<trkpt lat="35.845387" lon="139.568784">
<ele>16.0</ele>
<time>2026-04-03T00:50:40Z</time>
<speed>5.4</speed>
</trkpt>
<trkpt lat="35.845567" lon="139.568515">
<ele>16.2</ele>
<time>2026-04-03T00:50:47Z</time>
<speed>5.4</speed>
</trkpt>
<trkpt lat="35.845643" lon="139.568381">
<ele>16.0</ele>
<time>2026-04-03T00:50:53Z</time>
<speed>5.3</speed>
</trkpt>
<trkpt lat="35.845702" lon="139.568255">
<ele>15.8</ele>
<time>2026-04-03T00:50:55Z</time>
<speed>5.5</speed>
</trkpt>
<trkpt lat="35.845863" lon="139.567751">
<ele>15.8</ele>
<time>2026-04-03T00:51:02Z</time>
<speed>5.5</speed>
</trkpt>
<trkpt lat="35.845954" lon="139.567228">
<ele>16.0</ele>
<time>2026-04-03T00:51:10Z</time>
<speed>5.4</speed>
</trkpt>
<trkpt lat="35.846052" lon="139.566793">
<ele>16.0</ele>
<time>2026-04-03T00:51:18Z</time>
<speed>5.4</speed>
</trkpt>
<trkpt lat="35.846187" lon="139.566268">
<ele>16.0</ele>
<time>2026-04-03T00:51:29Z</time>
<speed>5.4</speed>
</trkpt>
<trkpt lat="35.846335" lon="139.565884">
<ele>15.8</ele>
<time>2026-04-03T00:51:38Z</time>
<speed>5.4</speed>
</trkpt>
<trkpt lat="35.846435" lon="139.565694">
<ele>15.8</ele>
<time>2026-04-03T00:51:40Z</time>
<speed>5.1</speed>
</trkpt>
<trkpt lat="35.846615" lon="139.565442">
<ele>15.8</ele>
<time>2026-04-03T00:51:46Z</time>
<speed>4.9</speed>
</trkpt>
<trkpt lat="35.846871" lon="139.565159">
<ele>16.0</ele>
<time>2026-04-03T00:51:54Z</time>
<speed>2.5</speed>
</trkpt>
<trkpt lat="35.846965" lon="139.565066">
<ele>16.4</ele>
<time>2026-04-03T00:51:59Z</time>
<speed>2.7</speed>
</trkpt>
<trkpt lat="35.847026" lon="139.565120">
<ele>16.0</ele>
<time>2026-04-03T00:52:22Z</time>
<speed>2.4</speed>
</trkpt>
<trkpt lat="35.847072" lon="139.565192">
<ele>16.0</ele>
<time>2026-04-03T00:52:23Z</time>
<speed>3.4</speed>
</trkpt>
<trkpt lat="35.847196" lon="139.565324">
<ele>16.2</ele>
<time>2026-04-03T00:52:28Z</time>
<speed>4.7</speed>
</trkpt>
<trkpt lat="35.847298" lon="139.565474">
<ele>16.6</ele>
<time>2026-04-03T00:52:34Z</time>
<speed>4.8</speed>
</trkpt>
<trkpt lat="35.847370" lon="139.565554">
<ele>16.8</ele>
<time>2026-04-03T00:52:35Z</time>
<speed>2.6</speed>
</trkpt>
<trkpt lat="35.847411" lon="139.565589">
<ele>17.0</ele>
<time>2026-04-03T00:52:39Z</time>
<speed>1.2</speed>
</trkpt>
<trkpt lat="35.847526" lon="139.565482">
<ele>17.0</ele>
<time>2026-04-03T00:52:42Z</time>
<speed>4.1</speed>
</trkpt>
<trkpt lat="35.847637" lon="139.565383">
<ele>16.8</ele>
<time>2026-04-03T00:52:46Z</time>
<speed>5.4</speed>
</trkpt>
<trkpt lat="35.847811" lon="139.565265">
<ele>16.6</ele>
<time>2026-04-03T00:52:51Z</time>
<speed>5.3</speed>
</trkpt>
<trkpt lat="35.848141" lon="139.565039">
<ele>16.2</ele>
<time>2026-04-03T00:52:59Z</time>
<speed>5.1</speed>
</trkpt>
<trkpt lat="35.848231" lon="139.564967">
<ele>16.2</ele>
<time>2026-04-03T00:53:00Z</time>
<speed>5.0</speed>
</trkpt>
<trkpt lat="35.848411" lon="139.564793">
<ele>16.2</ele>
<time>2026-04-03T00:53:04Z</time>
<speed>5.0</speed>
</trkpt>
<trkpt lat="35.848676" lon="139.564527">
<ele>16.2</ele>
<time>2026-04-03T00:53:14Z</time>
<speed>5.1</speed>
</trkpt>
<trkpt lat="35.848965" lon="139.564149">
<ele>16.2</ele>
<time>2026-04-03T00:53:24Z</time>
<speed>5.2</speed>
</trkpt>
<trkpt lat="35.849189" lon="139.563789">
<ele>16.2</ele>
<time>2026-04-03T00:53:31Z</time>
<speed>5.2</speed>
</trkpt>
<trkpt lat="35.849422" lon="139.563419">
<ele>16.2</ele>
<time>2026-04-03T00:53:39Z</time>
<speed>5.1</speed>
</trkpt>
<trkpt lat="35.849626" lon="139.563111">
<ele>16.4</ele>
<time>2026-04-03T00:53:44Z</time>
<speed>5.1</speed>
</trkpt>
<trkpt lat="35.849818" lon="139.562824">
<ele>16.4</ele>
<time>2026-04-03T00:53:49Z</time>
<speed>5.1</speed>
</trkpt>
<trkpt lat="35.849972" lon="139.562569">
<ele>16.4</ele>
<time>2026-04-03T00:53:58Z</time>
<speed>5.0</speed>
</trkpt>
<trkpt lat="35.850213" lon="139.562188">
<ele>16.4</ele>
<time>2026-04-03T00:54:06Z</time>
<speed>5.1</speed>
</trkpt>
<trkpt lat="35.850476" lon="139.561780">
<ele>16.2</ele>
<time>2026-04-03T00:54:16Z</time>
<speed>0.3</speed>
</trkpt>
<trkpt lat="35.850546" lon="139.561678">
<ele>15.6</ele>
<time>2026-04-03T00:55:06Z</time>
<speed>2.8</speed>
</trkpt>
<trkpt lat="35.850589" lon="139.561622">
<ele>15.6</ele>
<time>2026-04-03T00:55:07Z</time>
<speed>3.4</speed>
</trkpt>
<trkpt lat="35.850635" lon="139.561550">
<ele>15.6</ele>
<time>2026-04-03T00:55:08Z</time>
<speed>4.0</speed>
</trkpt>
<trkpt lat="35.850761" lon="139.561391">
<ele>15.8</ele>
<time>2026-04-03T00:55:14Z</time>
<speed>4.6</speed>
</trkpt>
<trkpt lat="35.850911" lon="139.561260">
<ele>15.8</ele>
<time>2026-04-03T00:55:18Z</time>
<speed>4.9</speed>
</trkpt>
<trkpt lat="35.851013" lon="139.561174">
<ele>16.0</ele>
<time>2026-04-03T00:55:21Z</time>
<speed>4.8</speed>
</trkpt>
<trkpt lat="35.851102" lon="139.561122">
<ele>16.0</ele>
<time>2026-04-03T00:55:24Z</time>
<speed>5.0</speed>
</trkpt>
<trkpt lat="35.851306" lon="139.561010">
<ele>16.0</ele>
<time>2026-04-03T00:55:29Z</time>
<speed>5.1</speed>
</trkpt>
<trkpt lat="35.851350" lon="139.560995">
<ele>16.0</ele>
<time>2026-04-03T00:55:30Z</time>
<speed>5.2</speed>
</trkpt>
<trkpt lat="35.851667" lon="139.560891">
<ele>16.0</ele>
<time>2026-04-03T00:55:37Z</time>
<speed>5.4</speed>
</trkpt>
<trkpt lat="35.852058" lon="139.560879">
<ele>16.0</ele>
<time>2026-04-03T00:55:45Z</time>
<speed>5.0</speed>
</trkpt>
<trkpt lat="35.852340" lon="139.560954">
<ele>16.2</ele>
<time>2026-04-03T00:55:52Z</time>
<speed>4.2</speed>
</trkpt>
<trkpt lat="35.852468" lon="139.561024">
<ele>16.2</ele>
<time>2026-04-03T00:55:56Z</time>
<speed>3.7</speed>
</trkpt>
<trkpt lat="35.852585" lon="139.561126">
<ele>16.0</ele>
<time>2026-04-03T00:55:59Z</time>
<speed>4.9</speed>
</trkpt>
<trkpt lat="35.852657" lon="139.561233">
<ele>16.0</ele>
<time>2026-04-03T00:56:03Z</time>
<speed>3.9</speed>
</trkpt>
<trkpt lat="35.852732" lon="139.561271">
<ele>16.0</ele>
<time>2026-04-03T00:56:04Z</time>
<speed>4.0</speed>
</trkpt>
<trkpt lat="35.852764" lon="139.561290">
<ele>16.0</ele>
<time>2026-04-03T00:56:05Z</time>
<speed>4.7</speed>
</trkpt>
<trkpt lat="35.852805" lon="139.561306">
<ele>15.8</ele>
<time>2026-04-03T00:56:07Z</time>
<speed>5.0</speed>
</trkpt>
<trkpt lat="35.853029" lon="139.561370">
<ele>14.6</ele>
<time>2026-04-03T00:56:12Z</time>
<speed>5.5</speed>
</trkpt>
<trkpt lat="35.853162" lon="139.561407">
<ele>14.4</ele>
<time>2026-04-03T00:56:14Z</time>
<speed>6.0</speed>
</trkpt>
<trkpt lat="35.853265" lon="139.561444">
<ele>14.4</ele>
<time>2026-04-03T00:56:16Z</time>
<speed>5.9</speed>
</trkpt>
<trkpt lat="35.853421" lon="139.561484">
<ele>14.4</ele>
<time>2026-04-03T00:56:19Z</time>
<speed>5.7</speed>
</trkpt>
<trkpt lat="35.853622" lon="139.561526">
<ele>14.0</ele>
<time>2026-04-03T00:56:23Z</time>
<speed>4.5</speed>
</trkpt>
<trkpt lat="35.853702" lon="139.561518">
<ele>13.6</ele>
<time>2026-04-03T00:56:25Z</time>
<speed>3.8</speed>
</trkpt>
<trkpt lat="35.853736" lon="139.561515">
<ele>13.6</ele>
<time>2026-04-03T00:56:26Z</time>
<speed>3.7</speed>
</trkpt>
<trkpt lat="35.853801" lon="139.561503">
<ele>13.6</ele>
<time>2026-04-03T00:56:28Z</time>
<speed>2.3</speed>
</trkpt>
<trkpt lat="35.853835" lon="139.561475">
<ele>13.6</ele>
<time>2026-04-03T00:56:31Z</time>
<speed>1.5</speed>
</trkpt>
<trkpt lat="35.853881" lon="139.561461">
<ele>13.6</ele>
<time>2026-04-03T00:56:32Z</time>
<speed>1.2</speed>
</trkpt>
<trkpt lat="35.853951" lon="139.561442">
<ele>15.4</ele>
<time>2026-04-03T00:56:48Z</time>
<speed>2.7</speed>
</trkpt>
<trkpt lat="35.853998" lon="139.561434">
<ele>15.6</ele>
<time>2026-04-03T00:56:49Z</time>
<speed>3.6</speed>
</trkpt>
<trkpt lat="35.854046" lon="139.561421">
<ele>15.8</ele>
<time>2026-04-03T00:56:50Z</time>
<speed>4.4</speed>
</trkpt>
<trkpt lat="35.854284" lon="139.561407">
<ele>16.2</ele>
<time>2026-04-03T00:56:56Z</time>
<speed>4.6</speed>
</trkpt>
<trkpt lat="35.854367" lon="139.561395">
<ele>16.2</ele>
<time>2026-04-03T00:56:58Z</time>
<speed>5.1</speed>
</trkpt>
<trkpt lat="35.854590" lon="139.561354">
<ele>16.4</ele>
<time>2026-04-03T00:57:03Z</time>
<speed>5.4</speed>
</trkpt>
<trkpt lat="35.855016" lon="139.561228">
<ele>16.4</ele>
<time>2026-04-03T00:57:12Z</time>
<speed>5.5</speed>
</trkpt>
<trkpt lat="35.855387" lon="139.561045">
<ele>16.4</ele>
<time>2026-04-03T00:57:20Z</time>
<speed>5.2</speed>
</trkpt>
<trkpt lat="35.855653" lon="139.560893">
<ele>16.4</ele>
<time>2026-04-03T00:57:28Z</time>
<speed>5.6</speed>
</trkpt>
<trkpt lat="35.856142" lon="139.560493">
<ele>16.2</ele>
<time>2026-04-03T00:57:38Z</time>
<speed>5.5</speed>
</trkpt>
<trkpt lat="35.856516" lon="139.560184">
<ele>16.4</ele>
<time>2026-04-03T00:57:47Z</time>
<speed>5.6</speed>
</trkpt>
<trkpt lat="35.856872" lon="139.559881">
<ele>16.4</ele>
<time>2026-04-03T00:57:56Z</time>
<speed>5.7</speed>
</trkpt>
<trkpt lat="35.857348" lon="139.559482">
<ele>16.2</ele>
<time>2026-04-03T00:58:07Z</time>
<speed>5.7</speed>
</trkpt>
<trkpt lat="35.857805" lon="139.559104">
<ele>16.2</ele>
<time>2026-04-03T00:58:18Z</time>
<speed>6.0</speed>
</trkpt>
<trkpt lat="35.858292" lon="139.558685">
<ele>16.2</ele>
<time>2026-04-03T00:58:29Z</time>
<speed>6.0</speed>
</trkpt>
<trkpt lat="35.858433" lon="139.558570">
<ele>16.4</ele>
<time>2026-04-03T00:58:31Z</time>
<speed>6.0</speed>
</trkpt>
<trkpt lat="35.858718" lon="139.558331">
<ele>16.6</ele>
<time>2026-04-03T00:58:38Z</time>
<speed>5.9</speed>
</trkpt>
<trkpt lat="35.858983" lon="139.558114">
<ele>16.6</ele>
<time>2026-04-03T00:58:40Z</time>
<speed>6.1</speed>
</trkpt>
<trkpt lat="35.859179" lon="139.557942">
<ele>16.6</ele>
<time>2026-04-03T00:58:48Z</time>
<speed>5.6</speed>
</trkpt>
<trkpt lat="35.859594" lon="139.557593">
<ele>16.6</ele>
<time>2026-04-03T00:58:57Z</time>
<speed>5.7</speed>
</trkpt>
<trkpt lat="35.859837" lon="139.557408">
<ele>16.4</ele>
<time>2026-04-03T00:59:05Z</time>
<speed>5.7</speed>
</trkpt>
<trkpt lat="35.860249" lon="139.557197">
<ele>16.4</ele>
<time>2026-04-03T00:59:13Z</time>
<speed>5.3</speed>
</trkpt>
<trkpt lat="35.860535" lon="139.557092">
<ele>16.6</ele>
<time>2026-04-03T00:59:20Z</time>
<speed>5.1</speed>
</trkpt>
<trkpt lat="35.860611" lon="139.557065">
<ele>16.6</ele>
<time>2026-04-03T00:59:21Z</time>
<speed>4.5</speed>
</trkpt>
<trkpt lat="35.860692" lon="139.557044">
<ele>16.6</ele>
<time>2026-04-03T00:59:23Z</time>
<speed>2.5</speed>
</trkpt>
<trkpt lat="35.860735" lon="139.557041">
<ele>16.6</ele>
<time>2026-04-03T00:59:25Z</time>
<speed>0.6</speed>
</trkpt>
<trkpt lat="35.860759" lon="139.557039">
<ele>16.6</ele>
<time>2026-04-03T00:59:30Z</time>
<speed>2.0</speed>
</trkpt>
<trkpt lat="35.860789" lon="139.557140">
<ele>16.4</ele>
<time>2026-04-03T00:59:34Z</time>
<speed>3.8</speed>
</trkpt>
<trkpt lat="35.860829" lon="139.557242">
<ele>16.4</ele>
<time>2026-04-03T00:59:35Z</time>
<speed>4.0</speed>
</trkpt>
<trkpt lat="35.860861" lon="139.557352">
<ele>16.4</ele>
<time>2026-04-03T00:59:38Z</time>
<speed>4.7</speed>
</trkpt>
<trkpt lat="35.860911" lon="139.557513">
<ele>16.4</ele>
<time>2026-04-03T00:59:40Z</time>
<speed>5.3</speed>
</trkpt>
<trkpt lat="35.861048" lon="139.557889">
<ele>16.2</ele>
<time>2026-04-03T00:59:49Z</time>
<speed>5.7</speed>
</trkpt>
<trkpt lat="35.861198" lon="139.558288">
<ele>15.8</ele>
<time>2026-04-03T00:59:58Z</time>
<speed>5.4</speed>
</trkpt>
<trkpt lat="35.861353" lon="139.558589">
<ele>15.6</ele>
<time>2026-04-03T01:00:00Z</time>
<speed>5.3</speed>
</trkpt>
<trkpt lat="35.861433" lon="139.558766">
<ele>15.6</ele>
<time>2026-04-03T01:00:04Z</time>
<speed>5.4</speed>
</trkpt>
<trkpt lat="35.861487" lon="139.558862">
<ele>15.2</ele>
<time>2026-04-03T01:00:08Z</time>
<speed>5.0</speed>
</trkpt>
<trkpt lat="35.861537" lon="139.558935">
<ele>15.2</ele>
<time>2026-04-03T01:00:09Z</time>
<speed>4.4</speed>
</trkpt>
<trkpt lat="35.861616" lon="139.559106">
<ele>14.8</ele>
<time>2026-04-03T01:00:16Z</time>
<speed>2.3</speed>
</trkpt>
<trkpt lat="35.861655" lon="139.559200">
<ele>14.8</ele>
<time>2026-04-03T01:00:18Z</time>
<speed>1.6</speed>
</trkpt>
<trkpt lat="35.861735" lon="139.559270">
<ele>14.6</ele>
<time>2026-04-03T01:00:20Z</time>
<speed>1.4</speed>
</trkpt>
<trkpt lat="35.861784" lon="139.559223">
<ele>14.6</ele>
<time>2026-04-03T01:00:21Z</time>
<speed>0.2</speed>
</trkpt>
<trkpt lat="35.861823" lon="139.559277">
<ele>14.2</ele>
<time>2026-04-03T01:00:52Z</time>
<speed>2.3</speed>
</trkpt>
<trkpt lat="35.861831" lon="139.559301">
<ele>14.2</ele>
<time>2026-04-03T01:00:53Z</time>
<speed>2.9</speed>
</trkpt>
<trkpt lat="35.861781" lon="139.559356">
<ele>14.2</ele>
<time>2026-04-03T01:00:55Z</time>
<speed>3.6</speed>
</trkpt>
<trkpt lat="35.861742" lon="139.559391">
<ele>14.2</ele>
<time>2026-04-03T01:00:56Z</time>
<speed>4.1</speed>
</trkpt>
<trkpt lat="35.861674" lon="139.559450">
<ele>14.2</ele>
<time>2026-04-03T01:00:58Z</time>
<speed>3.8</speed>
</trkpt>
<trkpt lat="35.861548" lon="139.559541">
<ele>14.4</ele>
<time>2026-04-03T01:01:03Z</time>
<speed>2.6</speed>
</trkpt>
<trkpt lat="35.861544" lon="139.559600">
<ele>14.4</ele>
<time>2026-04-03T01:01:05Z</time>
<speed>3.7</speed>
</trkpt>
<trkpt lat="35.861559" lon="139.559651">
<ele>14.4</ele>
<time>2026-04-03T01:01:06Z</time>
<speed>4.6</speed>
</trkpt>
<trkpt lat="35.861622" lon="139.559785">
<ele>14.6</ele>
<time>2026-04-03T01:01:09Z</time>
<speed>5.3</speed>
</trkpt>
<trkpt lat="35.861707" lon="139.559927">
<ele>14.6</ele>
<time>2026-04-03T01:01:12Z</time>
<speed>5.5</speed>
</trkpt>
<trkpt lat="35.861981" lon="139.560439">
<ele>14.8</ele>
<time>2026-04-03T01:01:23Z</time>
<speed>5.5</speed>
</trkpt>
<trkpt lat="35.862063" lon="139.560557">
<ele>14.8</ele>
<time>2026-04-03T01:01:24Z</time>
<speed>5.6</speed>
</trkpt>
<trkpt lat="35.862294" lon="139.560997">
<ele>14.8</ele>
<time>2026-04-03T01:01:33Z</time>
<speed>5.0</speed>
</trkpt>
<trkpt lat="35.862502" lon="139.561386">
<ele>14.8</ele>
<time>2026-04-03T01:01:41Z</time>
<speed>5.1</speed>
</trkpt>
<trkpt lat="35.862609" lon="139.561359">
<ele>14.8</ele>
<time>2026-04-03T01:01:44Z</time>
<speed>5.7</speed>
</trkpt>
<trkpt lat="35.862739" lon="139.561324">
<ele>14.8</ele>
<time>2026-04-03T01:01:45Z</time>
<speed>6.0</speed>
</trkpt>
<trkpt lat="35.863010" lon="139.561309">
<ele>14.6</ele>
<time>2026-04-03T01:01:50Z</time>
<speed>6.0</speed>
</trkpt>
<trkpt lat="35.863078" lon="139.561252">
<ele>14.4</ele>
<time>2026-04-03T01:01:51Z</time>
<speed>6.1</speed>
</trkpt>
<trkpt lat="35.863287" lon="139.561075">
<ele>14.4</ele>
<time>2026-04-03T01:01:52Z</time>
<speed>6.3</speed>
</trkpt>
<trkpt lat="35.863420" lon="139.560970">
<ele>14.4</ele>
<time>2026-04-03T01:01:59Z</time>
<speed>6.2</speed>
</trkpt>
<trkpt lat="35.863854" lon="139.560608">
<ele>14.4</ele>
<time>2026-04-03T01:02:08Z</time>
<speed>6.3</speed>
</trkpt>
<trkpt lat="35.864161" lon="139.560351">
<ele>14.2</ele>
<time>2026-04-03T01:02:18Z</time>
<speed>6.2</speed>
</trkpt>
<trkpt lat="35.864374" lon="139.560171">
<ele>14.2</ele>
<time>2026-04-03T01:02:19Z</time>
<speed>6.2</speed>
</trkpt>
<trkpt lat="35.864774" lon="139.559857">
<ele>14.2</ele>
<time>2026-04-03T01:02:29Z</time>
<speed>5.9</speed>
</trkpt>
<trkpt lat="35.864878" lon="139.559766">
<ele>14.2</ele>
<time>2026-04-03T01:02:30Z</time>
<speed>5.5</speed>
</trkpt>
<trkpt lat="35.864996" lon="139.559680">
<ele>14.2</ele>
<time>2026-04-03T01:02:33Z</time>
<speed>4.8</speed>
</trkpt>
<trkpt lat="35.865046" lon="139.559774">
<ele>14.2</ele>
<time>2026-04-03T01:02:34Z</time>
<speed>4.8</speed>
</trkpt>
<trkpt lat="35.865100" lon="139.559881">
<ele>14.2</ele>
<time>2026-04-03T01:02:37Z</time>
<speed>5.7</speed>
</trkpt>
<trkpt lat="35.865324" lon="139.560278">
<ele>14.0</ele>
<time>2026-04-03T01:02:45Z</time>
<speed>5.9</speed>
</trkpt>
<trkpt lat="35.865635" lon="139.560879">
<ele>14.2</ele>
<time>2026-04-03T01:02:56Z</time>
<speed>5.8</speed>
</trkpt>
<trkpt lat="35.865848" lon="139.561263">
<ele>14.6</ele>
<time>2026-04-03T01:03:07Z</time>
<speed>5.2</speed>
</trkpt>
<trkpt lat="35.865982" lon="139.561520">
<ele>14.6</ele>
<time>2026-04-03T01:03:08Z</time>
<speed>3.7</speed>
</trkpt>
<trkpt lat="35.866074" lon="139.561676">
<ele>14.6</ele>
<time>2026-04-03T01:03:13Z</time>
<speed>4.2</speed>
</trkpt>
<trkpt lat="35.866187" lon="139.561874">
<ele>14.4</ele>
<time>2026-04-03T01:03:18Z</time>
<speed>5.4</speed>
</trkpt>
<trkpt lat="35.866339" lon="139.562172">
<ele>14.2</ele>
<time>2026-04-03T01:03:24Z</time>
<speed>5.5</speed>
</trkpt>
<trkpt lat="35.866539" lon="139.562521">
<ele>14.4</ele>
<time>2026-04-03T01:03:31Z</time>
<speed>5.6</speed>
</trkpt>
<trkpt lat="35.866741" lon="139.562888">
<ele>14.4</ele>
<time>2026-04-03T01:03:42Z</time>
<speed>5.8</speed>
</trkpt>
<trkpt lat="35.866904" lon="139.563167">
<ele>14.4</ele>
<time>2026-04-03T01:03:43Z</time>
<speed>5.7</speed>
</trkpt>
<trkpt lat="35.867174" lon="139.563666">
<ele>14.4</ele>
<time>2026-04-03T01:03:53Z</time>
<speed>5.9</speed>
</trkpt>
<trkpt lat="35.867511" lon="139.564307">
<ele>14.4</ele>
<time>2026-04-03T01:04:04Z</time>
<speed>5.8</speed>
</trkpt>
<trkpt lat="35.867776" lon="139.564784">
<ele>14.4</ele>
<time>2026-04-03T01:04:13Z</time>
<speed>5.7</speed>
</trkpt>
<trkpt lat="35.868071" lon="139.565310">
<ele>14.2</ele>
<time>2026-04-03T01:04:24Z</time>
<speed>5.3</speed>
</trkpt>
<trkpt lat="35.868228" lon="139.565597">
<ele>14.2</ele>
<time>2026-04-03T01:04:34Z</time>
<speed>2.4</speed>
</trkpt>
<trkpt lat="35.868378" lon="139.565881">
<ele>14.2</ele>
<time>2026-04-03T01:04:37Z</time>
<speed>1.7</speed>
</trkpt>
<trkpt lat="35.868443" lon="139.565986">
<ele>14.2</ele>
<time>2026-04-03T01:04:43Z</time>
<speed>4.1</speed>
</trkpt>
<trkpt lat="35.868526" lon="139.566150">
<ele>14.2</ele>
<time>2026-04-03T01:04:48Z</time>
<speed>5.2</speed>
</trkpt>
<trkpt lat="35.868730" lon="139.566528">
<ele>14.2</ele>
<time>2026-04-03T01:04:56Z</time>
<speed>5.6</speed>
</trkpt>
<trkpt lat="35.869017" lon="139.567046">
<ele>14.4</ele>
<time>2026-04-03T01:05:07Z</time>
<speed>5.6</speed>
</trkpt>
<trkpt lat="35.869191" lon="139.567378">
<ele>14.4</ele>
<time>2026-04-03T01:05:11Z</time>
<speed>5.6</speed>
</trkpt>
<trkpt lat="35.869456" lon="139.567848">
<ele>14.4</ele>
<time>2026-04-03T01:05:20Z</time>
<speed>5.7</speed>
</trkpt>
<trkpt lat="35.869697" lon="139.568285">
<ele>14.4</ele>
<time>2026-04-03T01:05:30Z</time>
<speed>5.8</speed>
</trkpt>
<trkpt lat="35.869836" lon="139.568545">
<ele>14.4</ele>
<time>2026-04-03T01:05:35Z</time>
<speed>5.5</speed>
</trkpt>
<trkpt lat="35.869923" lon="139.568687">
<ele>14.4</ele>
<time>2026-04-03T01:05:38Z</time>
<speed>4.6</speed>
</trkpt>
<trkpt lat="35.870043" lon="139.568931">
<ele>14.4</ele>
<time>2026-04-03T01:05:44Z</time>
<speed>1.8</speed>
</trkpt>
<trkpt lat="35.870112" lon="139.569049">
<ele>14.2</ele>
<time>2026-04-03T01:05:48Z</time>
<speed>2.8</speed>
</trkpt>
<trkpt lat="35.870206" lon="139.569215">
<ele>14.0</ele>
<time>2026-04-03T01:05:52Z</time>
<speed>4.2</speed>
</trkpt>
<trkpt lat="35.870351" lon="139.569457">
<ele>14.0</ele>
<time>2026-04-03T01:05:56Z</time>
<speed>4.5</speed>
</trkpt>
<trkpt lat="35.870408" lon="139.569516">
<ele>14.0</ele>
<time>2026-04-03T01:06:00Z</time>
<speed>4.7</speed>
</trkpt>
<trkpt lat="35.870558" lon="139.569578">
<ele>14.0</ele>
<time>2026-04-03T01:06:04Z</time>
<speed>5.0</speed>
</trkpt>
<trkpt lat="35.870636" lon="139.569618">
<ele>14.0</ele>
<time>2026-04-03T01:06:05Z</time>
<speed>3.8</speed>
</trkpt>
<trkpt lat="35.870690" lon="139.569639">
<ele>14.0</ele>
<time>2026-04-03T01:06:09Z</time>
<speed>0.5</speed>
</trkpt>
<trkpt lat="35.870764" lon="139.569596">
<ele>15.4</ele>
<time>2026-04-03T01:06:25Z</time>
<speed>2.5</speed>
</trkpt>
<trkpt lat="35.870832" lon="139.569414">
<ele>15.6</ele>
<time>2026-04-03T01:06:29Z</time>
<speed>3.9</speed>
</trkpt>
<trkpt lat="35.870895" lon="139.569232">
<ele>15.8</ele>
<time>2026-04-03T01:06:35Z</time>
<speed>4.5</speed>
</trkpt>
<trkpt lat="35.871016" lon="139.568888">
<ele>16.0</ele>
<time>2026-04-03T01:06:42Z</time>
<speed>4.9</speed>
</trkpt>
<trkpt lat="35.871138" lon="139.568558">
<ele>16.2</ele>
<time>2026-04-03T01:06:49Z</time>
<speed>5.1</speed>
</trkpt>
<trkpt lat="35.871279" lon="139.568078">
<ele>16.4</ele>
<time>2026-04-03T01:06:59Z</time>
<speed>5.2</speed>
</trkpt>
<trkpt lat="35.871329" lon="139.567724">
<ele>16.6</ele>
<time>2026-04-03T01:07:05Z</time>
<speed>5.3</speed>
</trkpt>
<trkpt lat="35.871366" lon="139.567536">
<ele>16.6</ele>
<time>2026-04-03T01:07:07Z</time>
<speed>5.3</speed>
</trkpt>
<trkpt lat="35.871403" lon="139.567271">
<ele>16.6</ele>
<time>2026-04-03T01:07:10Z</time>
<speed>5.2</speed>
</trkpt>
<trkpt lat="35.871462" lon="139.566895">
<ele>16.6</ele>
<time>2026-04-03T01:07:17Z</time>
<speed>5.2</speed>
</trkpt>
<trkpt lat="35.871534" lon="139.566437">
<ele>16.4</ele>
<time>2026-04-03T01:07:26Z</time>
<speed>4.8</speed>
</trkpt>
<trkpt lat="35.871584" lon="139.566158">
<ele>16.4</ele>
<time>2026-04-03T01:07:34Z</time>
<speed>4.2</speed>
</trkpt>
<trkpt lat="35.871612" lon="139.565908">
<ele>16.2</ele>
<time>2026-04-03T01:07:38Z</time>
<speed>4.7</speed>
</trkpt>
<trkpt lat="35.871621" lon="139.565594">
<ele>16.0</ele>
<time>2026-04-03T01:07:44Z</time>
<speed>4.5</speed>
</trkpt>
<trkpt lat="35.871625" lon="139.565329">
<ele>16.0</ele>
<time>2026-04-03T01:07:48Z</time>
<speed>4.7</speed>
</trkpt>
<trkpt lat="35.871632" lon="139.565058">
<ele>16.0</ele>
<time>2026-04-03T01:07:53Z</time>
<speed>5.1</speed>
</trkpt>
<trkpt lat="35.871638" lon="139.564779">
<ele>16.0</ele>
<time>2026-04-03T01:07:56Z</time>
<speed>5.2</speed>
</trkpt>
<trkpt lat="35.871649" lon="139.564401">
<ele>16.0</ele>
<time>2026-04-03T01:08:00Z</time>
<speed>5.2</speed>
</trkpt>
<trkpt lat="35.871660" lon="139.563993">
<ele>16.0</ele>
<time>2026-04-03T01:08:08Z</time>
<speed>5.3</speed>
</trkpt>
<trkpt lat="35.871653" lon="139.563655">
<ele>16.2</ele>
<time>2026-04-03T01:08:16Z</time>
<speed>4.4</speed>
</trkpt>
<trkpt lat="35.871660" lon="139.563532">
<ele>16.2</ele>
<time>2026-04-03T01:08:22Z</time>
<speed>1.9</speed>
</trkpt>
<trkpt lat="35.871669" lon="139.563442">
<ele>16.2</ele>
<time>2026-04-03T01:08:26Z</time>
<speed>3.0</speed>
</trkpt>
<trkpt lat="35.871667" lon="139.563409">
<ele>16.2</ele>
<time>2026-04-03T01:08:27Z</time>
<speed>3.6</speed>
</trkpt>
<trkpt lat="35.871698" lon="139.563340">
<ele>16.4</ele>
<time>2026-04-03T01:08:29Z</time>
<speed>3.4</speed>
</trkpt>
<trkpt lat="35.871746" lon="139.563292">
<ele>16.6</ele>
<time>2026-04-03T01:08:31Z</time>
<speed>3.4</speed>
</trkpt>
<trkpt lat="35.871801" lon="139.563257">
<ele>16.6</ele>
<time>2026-04-03T01:08:33Z</time>
<speed>3.6</speed>
</trkpt>
<trkpt lat="35.871860" lon="139.563222">
<ele>16.8</ele>
<time>2026-04-03T01:08:35Z</time>
<speed>3.9</speed>
</trkpt>
<trkpt lat="35.871983" lon="139.563137">
<ele>17.2</ele>
<time>2026-04-03T01:08:39Z</time>
<speed>4.1</speed>
</trkpt>
<trkpt lat="35.872085" lon="139.563082">
<ele>17.8</ele>
<time>2026-04-03T01:08:42Z</time>
<speed>4.4</speed>
</trkpt>
<trkpt lat="35.872123" lon="139.563068">
<ele>18.2</ele>
<time>2026-04-03T01:08:43Z</time>
<speed>4.6</speed>
</trkpt>
<trkpt lat="35.872241" lon="139.563016">
<ele>19.0</ele>
<time>2026-04-03T01:08:46Z</time>
<speed>4.8</speed>
</trkpt>
<trkpt lat="35.872405" lon="139.562949">
<ele>19.8</ele>
<time>2026-04-03T01:08:50Z</time>
<speed>5.0</speed>
</trkpt>
<trkpt lat="35.872448" lon="139.562932">
<ele>20.0</ele>
<time>2026-04-03T01:08:51Z</time>
<speed>4.8</speed>
</trkpt>
<trkpt lat="35.872489" lon="139.562917">
<ele>20.0</ele>
<time>2026-04-03T01:08:52Z</time>
<speed>4.7</speed>
</trkpt>
<trkpt lat="35.872813" lon="139.562811">
<ele>20.8</ele>
<time>2026-04-03T01:09:00Z</time>
<speed>5.5</speed>
</trkpt>
<trkpt lat="35.873107" lon="139.562743">
<ele>20.8</ele>
<time>2026-04-03T01:09:06Z</time>
<speed>6.4</speed>
</trkpt>
<trkpt lat="35.873164" lon="139.562735">
<ele>20.8</ele>
<time>2026-04-03T01:09:07Z</time>
<speed>7.6</speed>
</trkpt>
<trkpt lat="35.873505" lon="139.562683">
<ele>20.2</ele>
<time>2026-04-03T01:09:12Z</time>
<speed>7.7</speed>
</trkpt>
<trkpt lat="35.873848" lon="139.562639">
<ele>19.0</ele>
<time>2026-04-03T01:09:17Z</time>
<speed>6.6</speed>
</trkpt>
<trkpt lat="35.873907" lon="139.562637">
<ele>18.6</ele>
<time>2026-04-03T01:09:18Z</time>
<speed>5.4</speed>
</trkpt>
<trkpt lat="35.874005" lon="139.562635">
<ele>18.2</ele>
<time>2026-04-03T01:09:20Z</time>
<speed>4.2</speed>
</trkpt>
<trkpt lat="35.873994" lon="139.562598">
<ele>18.0</ele>
<time>2026-04-03T01:09:21Z</time>
<speed>3.8</speed>
</trkpt>
<trkpt lat="35.873983" lon="139.562542">
<ele>17.8</ele>
<time>2026-04-03T01:09:22Z</time>
<speed>4.4</speed>
</trkpt>
<trkpt lat="35.873968" lon="139.562478">
<ele>17.6</ele>
<time>2026-04-03T01:09:23Z</time>
<speed>4.5</speed>
</trkpt>
<trkpt lat="35.873933" lon="139.562306">
<ele>17.4</ele>
<time>2026-04-03T01:09:24Z</time>
<speed>4.9</speed>
</trkpt>
<trkpt lat="35.873851" lon="139.561842">
<ele>16.8</ele>
<time>2026-04-03T01:09:31Z</time>
<speed>5.2</speed>
</trkpt>
<trkpt lat="35.873781" lon="139.561491">
<ele>16.8</ele>
<time>2026-04-03T01:09:39Z</time>
<speed>5.0</speed>
</trkpt>
<trkpt lat="35.873712" lon="139.561153">
<ele>17.0</ele>
<time>2026-04-03T01:09:48Z</time>
<speed>4.2</speed>
</trkpt>
<trkpt lat="35.873716" lon="139.561051">
<ele>16.8</ele>
<time>2026-04-03T01:09:52Z</time>
<speed>4.6</speed>
</trkpt>
<trkpt lat="35.873842" lon="139.560767">
<ele>16.8</ele>
<time>2026-04-03T01:09:56Z</time>
<speed>4.9</speed>
</trkpt>
<trkpt lat="35.873948" lon="139.560568">
<ele>16.8</ele>
<time>2026-04-03T01:10:01Z</time>
<speed>4.8</speed>
</trkpt>
<trkpt lat="35.873998" lon="139.560471">
<ele>16.8</ele>
<time>2026-04-03T01:10:03Z</time>
<speed>4.7</speed>
</trkpt>
<trkpt lat="35.874094" lon="139.560137">
<ele>16.8</ele>
<time>2026-04-03T01:10:10Z</time>
<speed>3.9</speed>
</trkpt>
<trkpt lat="35.874146" lon="139.559983">
<ele>16.8</ele>
<time>2026-04-03T01:10:14Z</time>
<speed>4.9</speed>
</trkpt>
<trkpt lat="35.874240" lon="139.559656">
<ele>16.8</ele>
<time>2026-04-03T01:10:20Z</time>
<speed>5.1</speed>
</trkpt>
<trkpt lat="35.874433" lon="139.559184">
<ele>16.8</ele>
<time>2026-04-03T01:10:29Z</time>
<speed>4.2</speed>
</trkpt>
<trkpt lat="35.874592" lon="139.558835">
<ele>16.8</ele>
<time>2026-04-03T01:10:36Z</time>
<speed>4.5</speed>
</trkpt>
<trkpt lat="35.874681" lon="139.558650">
<ele>16.8</ele>
<time>2026-04-03T01:10:42Z</time>
<speed>4.6</speed>
</trkpt>
<trkpt lat="35.874777" lon="139.558540">
<ele>16.6</ele>
<time>2026-04-03T01:10:44Z</time>
<speed>4.6</speed>
</trkpt>
<trkpt lat="35.874833" lon="139.558507">
<ele>16.8</ele>
<time>2026-04-03T01:10:47Z</time>
<speed>4.6</speed>
</trkpt>
<trkpt lat="35.874996" lon="139.558409">
<ele>16.8</ele>
<time>2026-04-03T01:10:53Z</time>
<speed>4.2</speed>
</trkpt>
<trkpt lat="35.875085" lon="139.558425">
<ele>16.8</ele>
<time>2026-04-03T01:10:55Z</time>
<speed>4.2</speed>
</trkpt>
<trkpt lat="35.875111" lon="139.558575">
<ele>16.8</ele>
<time>2026-04-03T01:10:56Z</time>
<speed>4.8</speed>
</trkpt>
<trkpt lat="35.875120" lon="139.558733">
<ele>16.6</ele>
<time>2026-04-03T01:11:00Z</time>
<speed>5.3</speed>
</trkpt>
<trkpt lat="35.875142" lon="139.558889">
<ele>16.6</ele>
<time>2026-04-03T01:11:01Z</time>
<speed>4.3</speed>
</trkpt>
<trkpt lat="35.875181" lon="139.558996">
<ele>16.8</ele>
<time>2026-04-03T01:11:06Z</time>
<speed>2.1</speed>
</trkpt>
<trkpt lat="35.875244" lon="139.559093">
<ele>16.8</ele>
<time>2026-04-03T01:11:11Z</time>
<speed>4.1</speed>
</trkpt>
<trkpt lat="35.875259" lon="139.559173">
<ele>16.8</ele>
<time>2026-04-03T01:11:12Z</time>
<speed>4.4</speed>
</trkpt>
<trkpt lat="35.875259" lon="139.559326">
<ele>17.0</ele>
<time>2026-04-03T01:11:14Z</time>
<speed>3.8</speed>
</trkpt>
<trkpt lat="35.875384" lon="139.559306">
<ele>17.0</ele>
<time>2026-04-03T01:11:17Z</time>
<speed>4.5</speed>
</trkpt>
<trkpt lat="35.875503" lon="139.559275">
<ele>17.0</ele>
<time>2026-04-03T01:11:20Z</time>
<speed>5.1</speed>
</trkpt>
<trkpt lat="35.875707" lon="139.559203">
<ele>17.0</ele>
<time>2026-04-03T01:11:21Z</time>
<speed>5.2</speed>
</trkpt>
<trkpt lat="35.875866" lon="139.559176">
<ele>17.0</ele>
<time>2026-04-03T01:11:28Z</time>
<speed>5.4</speed>
</trkpt>
<trkpt lat="35.876024" lon="139.559189">
<ele>17.0</ele>
<time>2026-04-03T01:11:30Z</time>
<speed>5.4</speed>
</trkpt>
<trkpt lat="35.876157" lon="139.559184">
<ele>17.0</ele>
<time>2026-04-03T01:11:34Z</time>
<speed>5.1</speed>
</trkpt>
<trkpt lat="35.876407" lon="139.559187">
<ele>17.0</ele>
<time>2026-04-03T01:11:41Z</time>
<speed>5.4</speed>
</trkpt>
<trkpt lat="35.876509" lon="139.559214">
<ele>17.0</ele>
<time>2026-04-03T01:11:42Z</time>
<speed>5.7</speed>
</trkpt>
<trkpt lat="35.876865" lon="139.559404">
<ele>17.0</ele>
<time>2026-04-03T01:11:45Z</time>
<speed>5.4</speed>
</trkpt>
<trkpt lat="35.877013" lon="139.559509">
<ele>16.8</ele>
<time>2026-04-03T01:11:53Z</time>
<speed>5.3</speed>
</trkpt>
<trkpt lat="35.877250" lon="139.559688">
<ele>16.4</ele>
<time>2026-04-03T01:12:00Z</time>
<speed>5.1</speed>
</trkpt>
<trkpt lat="35.877289" lon="139.559753">
<ele>16.4</ele>
<time>2026-04-03T01:12:01Z</time>
<speed>5.2</speed>
</trkpt>
<trkpt lat="35.877311" lon="139.559820">
<ele>16.4</ele>
<time>2026-04-03T01:12:04Z</time>
<speed>5.1</speed>
</trkpt>
<trkpt lat="35.877341" lon="139.559967">
<ele>16.4</ele>
<time>2026-04-03T01:12:05Z</time>
<speed>4.1</speed>
</trkpt>
<trkpt lat="35.877385" lon="139.560152">
<ele>16.4</ele>
<time>2026-04-03T01:12:09Z</time>
<speed>3.7</speed>
</trkpt>
<trkpt lat="35.877545" lon="139.560094">
<ele>16.4</ele>
<time>2026-04-03T01:12:12Z</time>
<speed>4.5</speed>
</trkpt>
<trkpt lat="35.877756" lon="139.560064">
<ele>16.4</ele>
<time>2026-04-03T01:12:17Z</time>
<speed>5.2</speed>
</trkpt>
<trkpt lat="35.877815" lon="139.560072">
<ele>16.6</ele>
<time>2026-04-03T01:12:18Z</time>
<speed>5.1</speed>
</trkpt>
<trkpt lat="35.877876" lon="139.560112">
<ele>16.6</ele>
<time>2026-04-03T01:12:21Z</time>
<speed>5.1</speed>
</trkpt>
<trkpt lat="35.878000" lon="139.560219">
<ele>16.6</ele>
<time>2026-04-03T01:12:22Z</time>
<speed>5.2</speed>
</trkpt>
<trkpt lat="35.878156" lon="139.560353">
<ele>16.6</ele>
<time>2026-04-03T01:12:28Z</time>
<speed>5.4</speed>
</trkpt>
<trkpt lat="35.878280" lon="139.560429">
<ele>16.6</ele>
<time>2026-04-03T01:12:31Z</time>
<speed>5.4</speed>
</trkpt>
<trkpt lat="35.878610" lon="139.560557">
<ele>16.6</ele>
<time>2026-04-03T01:12:34Z</time>
<speed>5.2</speed>
</trkpt>
<trkpt lat="35.878956" lon="139.560665">
<ele>16.6</ele>
<time>2026-04-03T01:12:41Z</time>
<speed>5.4</speed>
</trkpt>
<trkpt lat="35.879432" lon="139.560734">
<ele>16.6</ele>
<time>2026-04-03T01:12:47Z</time>
<speed>5.2</speed>
</trkpt>
<trkpt lat="35.879519" lon="139.560724">
<ele>16.6</ele>
<time>2026-04-03T01:12:53Z</time>
<speed>5.5</speed>
</trkpt>
<trkpt lat="35.879684" lon="139.560668">
<ele>16.6</ele>
<time>2026-04-03T01:13:00Z</time>
<speed>5.6</speed>
</trkpt>
<trkpt lat="35.879990" lon="139.560579">
<ele>16.6</ele>
<time>2026-04-03T01:13:06Z</time>
<speed>5.3</speed>
</trkpt>
<trkpt lat="35.880173" lon="139.560509">
<ele>16.6</ele>
<time>2026-04-03T01:13:08Z</time>
<speed>5.5</speed>
</trkpt>
<trkpt lat="35.880336" lon="139.560418">
<ele>16.6</ele>
<time>2026-04-03T01:13:12Z</time>
<speed>5.5</speed>
</trkpt>
<trkpt lat="35.880499" lon="139.560324">
<ele>16.6</ele>
<time>2026-04-03T01:13:19Z</time>
<speed>5.1</speed>
</trkpt>
<trkpt lat="35.880725" lon="139.560195">
<ele>16.6</ele>
<time>2026-04-03T01:13:20Z</time>
<speed>5.3</speed>
</trkpt>
<trkpt lat="35.880821" lon="139.560124">
<ele>16.6</ele>
<time>2026-04-03T01:13:25Z</time>
<speed>5.2</speed>
</trkpt>
<trkpt lat="35.881026" lon="139.559892">
<ele>16.6</ele>
<time>2026-04-03T01:13:31Z</time>
<speed>5.1</speed>
</trkpt>
<trkpt lat="35.881164" lon="139.559710">
<ele>16.6</ele>
<time>2026-04-03T01:13:35Z</time>
<speed>5.3</speed>
</trkpt>
<trkpt lat="35.881220" lon="139.559423">
<ele>16.6</ele>
<time>2026-04-03T01:13:36Z</time>
<speed>5.6</speed>
</trkpt>
<trkpt lat="35.881293" lon="139.559183">
<ele>16.6</ele>
<time>2026-04-03T01:13:44Z</time>
<speed>5.4</speed>
</trkpt>
<trkpt lat="35.881377" lon="139.558842">
<ele>16.8</ele>
<time>2026-04-03T01:13:50Z</time>
<speed>5.2</speed>
</trkpt>
<trkpt lat="35.881481" lon="139.558390">
<ele>16.8</ele>
<time>2026-04-03T01:13:58Z</time>
<speed>5.0</speed>
</trkpt>
<trkpt lat="35.881551" lon="139.558127">
<ele>16.6</ele>
<time>2026-04-03T01:14:03Z</time>
<speed>4.9</speed>
</trkpt>
<trkpt lat="35.881612" lon="139.557899">
<ele>16.6</ele>
<time>2026-04-03T01:14:06Z</time>
<speed>4.9</speed>
</trkpt>
<trkpt lat="35.881677" lon="139.557644">
<ele>16.6</ele>
<time>2026-04-03T01:14:12Z</time>
<speed>2.8</speed>
</trkpt>
<trkpt lat="35.881716" lon="139.557494">
<ele>16.6</ele>
<time>2026-04-03T01:14:16Z</time>
<speed>0.2</speed>
</trkpt>
<trkpt lat="35.881738" lon="139.557387">
<ele>16.4</ele>
<time>2026-04-03T01:15:48Z</time>
<speed>2.4</speed>
</trkpt>
<trkpt lat="35.881757" lon="139.557323">
<ele>16.4</ele>
<time>2026-04-03T01:15:49Z</time>
<speed>2.6</speed>
</trkpt>
<trkpt lat="35.881772" lon="139.557245">
<ele>16.4</ele>
<time>2026-04-03T01:15:53Z</time>
<speed>2.8</speed>
</trkpt>
<trkpt lat="35.881825" lon="139.557022">
<ele>16.4</ele>
<time>2026-04-03T01:15:54Z</time>
<speed>3.5</speed>
</trkpt>
<trkpt lat="35.881877" lon="139.556829">
<ele>16.6</ele>
<time>2026-04-03T01:16:01Z</time>
<speed>3.9</speed>
</trkpt>
<trkpt lat="35.881929" lon="139.556636">
<ele>16.8</ele>
<time>2026-04-03T01:16:07Z</time>
<speed>4.4</speed>
</trkpt>
<trkpt lat="35.882053" lon="139.556368">
<ele>17.0</ele>
<time>2026-04-03T01:16:14Z</time>
<speed>4.5</speed>
</trkpt>
<trkpt lat="35.882224" lon="139.556070">
<ele>17.4</ele>
<time>2026-04-03T01:16:21Z</time>
<speed>3.8</speed>
</trkpt>
<trkpt lat="35.882283" lon="139.555944">
<ele>17.6</ele>
<time>2026-04-03T01:16:26Z</time>
<speed>1.7</speed>
</trkpt>
<trkpt lat="35.882318" lon="139.555858">
<ele>17.6</ele>
<time>2026-04-03T01:16:31Z</time>
<speed>2.9</speed>
</trkpt>
<trkpt lat="35.882396" lon="139.555638">
<ele>17.6</ele>
<time>2026-04-03T01:16:36Z</time>
<speed>3.8</speed>
</trkpt>
<trkpt lat="35.882472" lon="139.555434">
<ele>17.6</ele>
<time>2026-04-03T01:16:42Z</time>
<speed>4.5</speed>
</trkpt>
<trkpt lat="35.882535" lon="139.555241">
<ele>17.6</ele>
<time>2026-04-03T01:16:47Z</time>
<speed>4.5</speed>
</trkpt>
<trkpt lat="35.882650" lon="139.554890">
<ele>17.8</ele>
<time>2026-04-03T01:16:50Z</time>
<speed>4.4</speed>
</trkpt>
<trkpt lat="35.882696" lon="139.554772">
<ele>18.0</ele>
<time>2026-04-03T01:16:57Z</time>
<speed>3.0</speed>
</trkpt>
<trkpt lat="35.882770" lon="139.554683">
<ele>18.0</ele>
<time>2026-04-03T01:17:03Z</time>
<speed>2.0</speed>
</trkpt>
<trkpt lat="35.882824" lon="139.554528">
<ele>18.0</ele>
<time>2026-04-03T01:17:08Z</time>
<speed>3.9</speed>
</trkpt>
<trkpt lat="35.882902" lon="139.554292">
<ele>18.0</ele>
<time>2026-04-03T01:17:14Z</time>
<speed>4.6</speed>
</trkpt>
<trkpt lat="35.883016" lon="139.553960">
<ele>18.0</ele>
<time>2026-04-03T01:17:21Z</time>
<speed>4.9</speed>
</trkpt>
<trkpt lat="35.883146" lon="139.553479">
<ele>18.6</ele>
<time>2026-04-03T01:17:29Z</time>
<speed>5.2</speed>
</trkpt>
<trkpt lat="35.883298" lon="139.553098">
<ele>18.6</ele>
<time>2026-04-03T01:17:37Z</time>
<speed>3.4</speed>
</trkpt>
<trkpt lat="35.883367" lon="139.552945">
<ele>18.4</ele>
<time>2026-04-03T01:17:43Z</time>
<speed>0.7</speed>
</trkpt>
<trkpt lat="35.883404" lon="139.552865">
<ele>18.4</ele>
<time>2026-04-03T01:17:54Z</time>
<speed>4.1</speed>
</trkpt>
<trkpt lat="35.883461" lon="139.552795">
<ele>18.4</ele>
<time>2026-04-03T01:17:55Z</time>
<speed>5.3</speed>
</trkpt>
<trkpt lat="35.883624" lon="139.552521">
<ele>18.4</ele>
<time>2026-04-03T01:18:00Z</time>
<speed>5.5</speed>
</trkpt>
<trkpt lat="35.883887" lon="139.552186">
<ele>18.2</ele>
<time>2026-04-03T01:18:08Z</time>
<speed>5.5</speed>
</trkpt>
<trkpt lat="35.884038" lon="139.552018">
<ele>18.2</ele>
<time>2026-04-03T01:18:13Z</time>
<speed>5.7</speed>
</trkpt>
<trkpt lat="35.884041" lon="139.551926">
<ele>18.2</ele>
<time>2026-04-03T01:18:14Z</time>
<speed>5.7</speed>
</trkpt>
<trkpt lat="35.884098" lon="139.551623">
<ele>18.2</ele>
<time>2026-04-03T01:18:19Z</time>
<speed>5.6</speed>
</trkpt>
<trkpt lat="35.884154" lon="139.551280">
<ele>18.2</ele>
<time>2026-04-03T01:18:25Z</time>
<speed>5.0</speed>
</trkpt>
<trkpt lat="35.884163" lon="139.551105">
<ele>18.0</ele>
<time>2026-04-03T01:18:26Z</time>
<speed>4.1</speed>
</trkpt>
<trkpt lat="35.884156" lon="139.551027">
<ele>17.6</ele>
<time>2026-04-03T01:18:32Z</time>
<speed>3.7</speed>
</trkpt>
<trkpt lat="35.884115" lon="139.550829">
<ele>17.4</ele>
<time>2026-04-03T01:18:35Z</time>
<speed>3.4</speed>
</trkpt>
<trkpt lat="35.884065" lon="139.550722">
<ele>17.2</ele>
<time>2026-04-03T01:18:38Z</time>
<speed>3.5</speed>
</trkpt>
<trkpt lat="35.884017" lon="139.550579">
<ele>17.2</ele>
<time>2026-04-03T01:18:42Z</time>
<speed>3.9</speed>
</trkpt>
<trkpt lat="35.883961" lon="139.550397">
<ele>17.0</ele>
<time>2026-04-03T01:18:44Z</time>
<speed>4.3</speed>
</trkpt>
<trkpt lat="35.883922" lon="139.550271">
<ele>17.0</ele>
<time>2026-04-03T01:18:49Z</time>
<speed>4.0</speed>
</trkpt>
<trkpt lat="35.883898" lon="139.550201">
<ele>17.0</ele>
<time>2026-04-03T01:18:51Z</time>
<speed>3.1</speed>
</trkpt>
<trkpt lat="35.883870" lon="139.550121">
<ele>17.2</ele>
<time>2026-04-03T01:18:54Z</time>
<speed>2.9</speed>
</trkpt>
<trkpt lat="35.883844" lon="139.550117">
<ele>17.2</ele>
<time>2026-04-03T01:18:55Z</time>
<speed>3.1</speed>
</trkpt>
<trkpt lat="35.883766" lon="139.550151">
<ele>17.2</ele>
<time>2026-04-03T01:18:58Z</time>
<speed>2.5</speed>
</trkpt>
<trkpt lat="35.883699" lon="139.550078">
<ele>17.2</ele>
<time>2026-04-03T01:19:02Z</time>
<speed>4.3</speed>
</trkpt>
<trkpt lat="35.883685" lon="139.550034">
<ele>17.2</ele>
<time>2026-04-03T01:19:03Z</time>
<speed>5.0</speed>
</trkpt>
<trkpt lat="35.883617" lon="139.549828">
<ele>17.4</ele>
<time>2026-04-03T01:19:07Z</time>
<speed>5.1</speed>
</trkpt>
<trkpt lat="35.883450" lon="139.549351">
<ele>17.4</ele>
<time>2026-04-03T01:19:16Z</time>
<speed>5.0</speed>
</trkpt>
<trkpt lat="35.883296" lon="139.548887">
<ele>17.4</ele>
<time>2026-04-03T01:19:25Z</time>
<speed>5.3</speed>
</trkpt>
<trkpt lat="35.883126" lon="139.548356">
<ele>17.8</ele>
<time>2026-04-03T01:19:35Z</time>
<speed>5.2</speed>
</trkpt>
<trkpt lat="35.883037" lon="139.548074">
<ele>17.8</ele>
<time>2026-04-03T01:19:43Z</time>
<speed>5.3</speed>
</trkpt>
<trkpt lat="35.882922" lon="139.547734">
<ele>17.6</ele>
<time>2026-04-03T01:19:51Z</time>
<speed>4.9</speed>
</trkpt>
<trkpt lat="35.882755" lon="139.547428">
<ele>17.6</ele>
<time>2026-04-03T01:19:54Z</time>
<speed>5.1</speed>
</trkpt>
<trkpt lat="35.882700" lon="139.547251">
<ele>17.8</ele>
<time>2026-04-03T01:19:56Z</time>
<speed>3.5</speed>
</trkpt>
<trkpt lat="35.882655" lon="139.547087">
<ele>17.8</ele>
<time>2026-04-03T01:20:01Z</time>
<speed>0.3</speed>
</trkpt>
<trkpt lat="35.882632" lon="139.547047">
<ele>19.6</ele>
<time>2026-04-03T01:20:16Z</time>
<speed>4.1</speed>
</trkpt>
<trkpt lat="35.882608" lon="139.546962">
<ele>19.6</ele>
<time>2026-04-03T01:20:18Z</time>
<speed>4.9</speed>
</trkpt>
<trkpt lat="35.882548" lon="139.546905">
<ele>19.6</ele>
<time>2026-04-03T01:20:19Z</time>
<speed>5.7</speed>
</trkpt>
<trkpt lat="35.882457" lon="139.546755">
<ele>19.6</ele>
<time>2026-04-03T01:20:22Z</time>
<speed>6.3</speed>
</trkpt>
<trkpt lat="35.882309" lon="139.546401">
<ele>19.2</ele>
<time>2026-04-03T01:20:28Z</time>
<speed>6.0</speed>
</trkpt>
<trkpt lat="35.882161" lon="139.546114">
<ele>18.6</ele>
<time>2026-04-03T01:20:32Z</time>
<speed>6.2</speed>
</trkpt>
<trkpt lat="35.882057" lon="139.545888">
<ele>18.0</ele>
<time>2026-04-03T01:20:36Z</time>
<speed>6.2</speed>
</trkpt>
<trkpt lat="35.881777" lon="139.545328">
<ele>17.8</ele>
<time>2026-04-03T01:20:46Z</time>
<speed>6.3</speed>
</trkpt>
<trkpt lat="35.881516" lon="139.544805">
<ele>18.2</ele>
<time>2026-04-03T01:20:55Z</time>
<speed>6.4</speed>
</trkpt>
<trkpt lat="35.881275" lon="139.544333">
<ele>18.2</ele>
<time>2026-04-03T01:21:03Z</time>
<speed>5.2</speed>
</trkpt>
<trkpt lat="35.881040" lon="139.543898">
<ele>18.2</ele>
<time>2026-04-03T01:21:12Z</time>
<speed>4.8</speed>
</trkpt>
<trkpt lat="35.880881" lon="139.543582">
<ele>18.2</ele>
<time>2026-04-03T01:21:19Z</time>
<speed>1.7</speed>
</trkpt>
<trkpt lat="35.880831" lon="139.543488">
<ele>18.6</ele>
<time>2026-04-03T01:21:23Z</time>
<speed>3.2</speed>
</trkpt>
<trkpt lat="35.880751" lon="139.543313">
<ele>18.6</ele>
<time>2026-04-03T01:21:28Z</time>
<speed>5.3</speed>
</trkpt>
<trkpt lat="35.880712" lon="139.543203">
<ele>18.6</ele>
<time>2026-04-03T01:21:31Z</time>
<speed>5.9</speed>
</trkpt>
<trkpt lat="35.880629" lon="139.543008">
<ele>18.6</ele>
<time>2026-04-03T01:21:32Z</time>
<speed>5.8</speed>
</trkpt>
<trkpt lat="35.880499" lon="139.542764">
<ele>17.8</ele>
<time>2026-04-03T01:21:39Z</time>
<speed>5.9</speed>
</trkpt>
<trkpt lat="35.880340" lon="139.542444">
<ele>17.6</ele>
<time>2026-04-03T01:21:44Z</time>
<speed>6.0</speed>
</trkpt>
<trkpt lat="35.880203" lon="139.542114">
<ele>17.4</ele>
<time>2026-04-03T01:21:46Z</time>
<speed>6.1</speed>
</trkpt>
<trkpt lat="35.880127" lon="139.541819">
<ele>17.4</ele>
<time>2026-04-03T01:21:55Z</time>
<speed>5.7</speed>
</trkpt>
<trkpt lat="35.880051" lon="139.541554">
<ele>17.4</ele>
<time>2026-04-03T01:21:59Z</time>
<speed>4.8</speed>
</trkpt>
<trkpt lat="35.880016" lon="139.541371">
<ele>17.4</ele>
<time>2026-04-03T01:22:02Z</time>
<speed>4.2</speed>
</trkpt>
<trkpt lat="35.880012" lon="139.541216">
<ele>17.8</ele>
<time>2026-04-03T01:22:06Z</time>
<speed>4.5</speed>
</trkpt>
<trkpt lat="35.880010" lon="139.541117">
<ele>18.0</ele>
<time>2026-04-03T01:22:08Z</time>
<speed>4.9</speed>
</trkpt>
<trkpt lat="35.880008" lon="139.540953">
<ele>18.6</ele>
<time>2026-04-03T01:22:11Z</time>
<speed>6.0</speed>
</trkpt>
<trkpt lat="35.880003" lon="139.540631">
<ele>19.0</ele>
<time>2026-04-03T01:22:14Z</time>
<speed>5.8</speed>
</trkpt>
<trkpt lat="35.879969" lon="139.540379">
<ele>19.0</ele>
<time>2026-04-03T01:22:20Z</time>
<speed>4.5</speed>
</trkpt>
<trkpt lat="35.879936" lon="139.540033">
<ele>18.8</ele>
<time>2026-04-03T01:22:27Z</time>
<speed>5.5</speed>
</trkpt>
<trkpt lat="35.879956" lon="139.539675">
<ele>19.2</ele>
<time>2026-04-03T01:22:33Z</time>
<speed>4.7</speed>
</trkpt>
<trkpt lat="35.879926" lon="139.539310">
<ele>19.4</ele>
<time>2026-04-03T01:22:40Z</time>
<speed>4.6</speed>
</trkpt>
<trkpt lat="35.879908" lon="139.539116">
<ele>19.6</ele>
<time>2026-04-03T01:22:46Z</time>
<speed>6.9</speed>
</trkpt>
<trkpt lat="35.879925" lon="139.538797">
<ele>19.4</ele>
<time>2026-04-03T01:22:50Z</time>
<speed>6.1</speed>
</trkpt>
<trkpt lat="35.879934" lon="139.538628">
<ele>19.4</ele>
<time>2026-04-03T01:22:53Z</time>
<speed>4.4</speed>
</trkpt>
<trkpt lat="35.879958" lon="139.538429">
<ele>19.4</ele>
<time>2026-04-03T01:22:55Z</time>
<speed>2.1</speed>
</trkpt>
<trkpt lat="35.879969" lon="139.538359">
<ele>18.6</ele>
<time>2026-04-03T01:22:58Z</time>
<speed>0.8</speed>
</trkpt>
<trkpt lat="35.879987" lon="139.538323">
<ele>18.6</ele>
<time>2026-04-03T01:22:59Z</time>
<speed>0.6</speed>
</trkpt>
<trkpt lat="35.879997" lon="139.538244">
<ele>18.8</ele>
<time>2026-04-03T01:23:14Z</time>
<speed>2.8</speed>
</trkpt>
<trkpt lat="35.880025" lon="139.538123">
<ele>19.0</ele>
<time>2026-04-03T01:23:15Z</time>
<speed>4.0</speed>
</trkpt>
<trkpt lat="35.880088" lon="139.537885">
<ele>19.2</ele>
<time>2026-04-03T01:23:21Z</time>
<speed>5.0</speed>
</trkpt>
<trkpt lat="35.880175" lon="139.537514">
<ele>19.4</ele>
<time>2026-04-03T01:23:29Z</time>
<speed>5.2</speed>
</trkpt>
<trkpt lat="35.880249" lon="139.537214">
<ele>19.6</ele>
<time>2026-04-03T01:23:35Z</time>
<speed>5.2</speed>
</trkpt>
<trkpt lat="35.880303" lon="139.536903">
<ele>19.6</ele>
<time>2026-04-03T01:23:38Z</time>
<speed>5.3</speed>
</trkpt>
<trkpt lat="35.880377" lon="139.536396">
<ele>20.0</ele>
<time>2026-04-03T01:23:49Z</time>
<speed>4.7</speed>
</trkpt>
<trkpt lat="35.880412" lon="139.536015">
<ele>20.2</ele>
<time>2026-04-03T01:23:57Z</time>
<speed>1.0</speed>
</trkpt>
<trkpt lat="35.880408" lon="139.535959">
<ele>20.2</ele>
<time>2026-04-03T01:23:58Z</time>
<speed>0.7</speed>
</trkpt>
<trkpt lat="35.880410" lon="139.535932">
<ele>20.2</ele>
<time>2026-04-03T01:24:01Z</time>
<speed>1.4</speed>
</trkpt>
<trkpt lat="35.880433" lon="139.535894">
<ele>20.0</ele>
<time>2026-04-03T01:24:05Z</time>
<speed>1.8</speed>
</trkpt>
<trkpt lat="35.880437" lon="139.535875">
<ele>20.0</ele>
<time>2026-04-03T01:24:06Z</time>
<speed>2.3</speed>
</trkpt>
<trkpt lat="35.880439" lon="139.535797">
<ele>19.8</ele>
<time>2026-04-03T01:24:09Z</time>
<speed>2.9</speed>
</trkpt>
<trkpt lat="35.880445" lon="139.535734">
<ele>19.4</ele>
<time>2026-04-03T01:24:11Z</time>
<speed>3.7</speed>
</trkpt>
<trkpt lat="35.880454" lon="139.535611">
<ele>18.4</ele>
<time>2026-04-03T01:24:14Z</time>
<speed>4.4</speed>
</trkpt>
<trkpt lat="35.880464" lon="139.535465">
<ele>18.2</ele>
<time>2026-04-03T01:24:17Z</time>
<speed>0.0</speed>
</trkpt>
<trkpt lat="35.880464" lon="139.535465">
<ele>18.0</ele>
<time>2026-04-03T01:24:21Z</time>
<speed>0.0</speed>
</trkpt>
<trkpt lat="35.880464" lon="139.535465">
<ele>18.0</ele>
<time>2026-04-03T01:24:22Z</time>
<speed>10.3</speed>
</trkpt>
<trkpt lat="35.880459" lon="139.534895">
<ele>18.0</ele>
<time>2026-04-03T01:24:27Z</time>
<speed>5.5</speed>
</trkpt>
<trkpt lat="35.880419" lon="139.534535">
<ele>18.0</ele>
<time>2026-04-03T01:24:33Z</time>
<speed>4.2</speed>
</trkpt>
<trkpt lat="35.880377" lon="139.534355">
<ele>18.0</ele>
<time>2026-04-03T01:24:37Z</time>
<speed>3.7</speed>
</trkpt>
<trkpt lat="35.880334" lon="139.534154">
<ele>18.2</ele>
<time>2026-04-03T01:24:42Z</time>
<speed>4.7</speed>
</trkpt>
<trkpt lat="35.880312" lon="139.534009">
<ele>18.4</ele>
<time>2026-04-03T01:24:44Z</time>
<speed>4.7</speed>
</trkpt>
<trkpt lat="35.880301" lon="139.533813">
<ele>19.2</ele>
<time>2026-04-03T01:24:48Z</time>
<speed>5.0</speed>
</trkpt>
<trkpt lat="35.880288" lon="139.533612">
<ele>19.4</ele>
<time>2026-04-03T01:24:49Z</time>
<speed>5.0</speed>
</trkpt>
<trkpt lat="35.880288" lon="139.533317">
<ele>19.6</ele>
<time>2026-04-03T01:24:54Z</time>
<speed>5.0</speed>
</trkpt>
<trkpt lat="35.880292" lon="139.533054">
<ele>19.8</ele>
<time>2026-04-03T01:25:00Z</time>
<speed>5.0</speed>
</trkpt>
<trkpt lat="35.880314" lon="139.532826">
<ele>19.8</ele>
<time>2026-04-03T01:25:06Z</time>
<speed>5.3</speed>
</trkpt>
<trkpt lat="35.880336" lon="139.532577">
<ele>19.8</ele>
<time>2026-04-03T01:25:07Z</time>
<speed>5.3</speed>
</trkpt>
<trkpt lat="35.880386" lon="139.532311">
<ele>20.0</ele>
<time>2026-04-03T01:25:15Z</time>
<speed>5.3</speed>
</trkpt>
<trkpt lat="35.880495" lon="139.531852">
<ele>20.0</ele>
<time>2026-04-03T01:25:23Z</time>
<speed>5.4</speed>
</trkpt>
<trkpt lat="35.880655" lon="139.531345">
<ele>20.2</ele>
<time>2026-04-03T01:25:32Z</time>
<speed>5.5</speed>
</trkpt>
<trkpt lat="35.880799" lon="139.530895">
<ele>20.0</ele>
<time>2026-04-03T01:25:40Z</time>
<speed>5.7</speed>
</trkpt>
<trkpt lat="35.880953" lon="139.530436">
<ele>20.0</ele>
<time>2026-04-03T01:25:48Z</time>
<speed>5.6</speed>
</trkpt>
<trkpt lat="35.881166" lon="139.529790">
<ele>20.0</ele>
<time>2026-04-03T01:25:59Z</time>
<speed>3.1</speed>
</trkpt>
<trkpt lat="35.881205" lon="139.529666">
<ele>20.0</ele>
<time>2026-04-03T01:26:03Z</time>
<speed>0.8</speed>
</trkpt>
<trkpt lat="35.881246" lon="139.529532">
<ele>19.8</ele>
<time>2026-04-03T01:26:09Z</time>
<speed>3.8</speed>
</trkpt>
<trkpt lat="35.881314" lon="139.529312">
<ele>19.6</ele>
<time>2026-04-03T01:26:13Z</time>
<speed>4.8</speed>
</trkpt>
<trkpt lat="35.881403" lon="139.529047">
<ele>19.6</ele>
<time>2026-04-03T01:26:20Z</time>
<speed>5.5</speed>
</trkpt>
<trkpt lat="35.881485" lon="139.528792">
<ele>19.6</ele>
<time>2026-04-03T01:26:25Z</time>
<speed>5.4</speed>
</trkpt>
<trkpt lat="35.881640" lon="139.528384">
<ele>19.6</ele>
<time>2026-04-03T01:26:33Z</time>
<speed>4.5</speed>
</trkpt>
<trkpt lat="35.881733" lon="139.528154">
<ele>19.6</ele>
<time>2026-04-03T01:26:38Z</time>
<speed>4.2</speed>
</trkpt>
<trkpt lat="35.881870" lon="139.527877">
<ele>19.6</ele>
<time>2026-04-03T01:26:45Z</time>
<speed>4.4</speed>
</trkpt>
<trkpt lat="35.882011" lon="139.527593">
<ele>19.6</ele>
<time>2026-04-03T01:26:52Z</time>
<speed>2.4</speed>
</trkpt>
<trkpt lat="35.882103" lon="139.527427">
<ele>19.6</ele>
<time>2026-04-03T01:26:56Z</time>
<speed>4.7</speed>
</trkpt>
<trkpt lat="35.882224" lon="139.527215">
<ele>19.6</ele>
<time>2026-04-03T01:27:02Z</time>
<speed>5.3</speed>
</trkpt>
<trkpt lat="35.882509" lon="139.526770">
<ele>19.8</ele>
<time>2026-04-03T01:27:12Z</time>
<speed>5.7</speed>
</trkpt>
<trkpt lat="35.882796" lon="139.526402">
<ele>20.2</ele>
<time>2026-04-03T01:27:20Z</time>
<speed>5.8</speed>
</trkpt>
<trkpt lat="35.883015" lon="139.526123">
<ele>20.2</ele>
<time>2026-04-03T01:27:26Z</time>
<speed>5.4</speed>
</trkpt>
<trkpt lat="35.883341" lon="139.525796">
<ele>20.2</ele>
<time>2026-04-03T01:27:35Z</time>
<speed>5.8</speed>
</trkpt>
<trkpt lat="35.883726" lon="139.525455">
<ele>20.2</ele>
<time>2026-04-03T01:27:44Z</time>
<speed>5.8</speed>
</trkpt>
<trkpt lat="35.884113" lon="139.525158">
<ele>20.2</ele>
<time>2026-04-03T01:27:53Z</time>
<speed>5.8</speed>
</trkpt>
<trkpt lat="35.884484" lon="139.524900">
<ele>20.2</ele>
<time>2026-04-03T01:28:01Z</time>
<speed>5.8</speed>
</trkpt>
<trkpt lat="35.884789" lon="139.524685">
<ele>20.4</ele>
<time>2026-04-03T01:28:08Z</time>
<speed>5.6</speed>
</trkpt>
<trkpt lat="35.884923" lon="139.524600">
<ele>20.4</ele>
<time>2026-04-03T01:28:11Z</time>
<speed>4.9</speed>
</trkpt>
<trkpt lat="35.885091" lon="139.524498">
<ele>20.4</ele>
<time>2026-04-03T01:28:15Z</time>
<speed>4.5</speed>
</trkpt>
<trkpt lat="35.885132" lon="139.524471">
<ele>20.4</ele>
<time>2026-04-03T01:28:16Z</time>
<speed>4.8</speed>
</trkpt>
<trkpt lat="35.885265" lon="139.524390">
<ele>20.4</ele>
<time>2026-04-03T01:28:18Z</time>
<speed>5.5</speed>
</trkpt>
<trkpt lat="35.885536" lon="139.524248">
<ele>20.2</ele>
<time>2026-04-03T01:28:25Z</time>
<speed>4.7</speed>
</trkpt>
<trkpt lat="35.885669" lon="139.524192">
<ele>20.0</ele>
<time>2026-04-03T01:28:29Z</time>
<speed>2.6</speed>
</trkpt>
<trkpt lat="35.885734" lon="139.524248">
<ele>20.0</ele>
<time>2026-04-03T01:28:30Z</time>
<speed>3.4</speed>
</trkpt>
<trkpt lat="35.885775" lon="139.524280">
<ele>20.0</ele>
<time>2026-04-03T01:28:34Z</time>
<speed>1.9</speed>
</trkpt>
<trkpt lat="35.885808" lon="139.524334">
<ele>20.0</ele>
<time>2026-04-03T01:28:37Z</time>
<speed>3.7</speed>
</trkpt>
<trkpt lat="35.885904" lon="139.524208">
<ele>20.0</ele>
<time>2026-04-03T01:28:40Z</time>
<speed>3.7</speed>
</trkpt>
<trkpt lat="35.886060" lon="139.524176">
<ele>20.0</ele>
<time>2026-04-03T01:28:44Z</time>
<speed>4.3</speed>
</trkpt>
<trkpt lat="35.886077" lon="139.524136">
<ele>20.0</ele>
<time>2026-04-03T01:28:46Z</time>
<speed>4.8</speed>
</trkpt>
<trkpt lat="35.886121" lon="139.524071">
<ele>20.0</ele>
<time>2026-04-03T01:28:47Z</time>
<speed>4.0</speed>
</trkpt>
<trkpt lat="35.886191" lon="139.523990">
<ele>20.0</ele>
<time>2026-04-03T01:28:50Z</time>
<speed>4.0</speed>
</trkpt>
<trkpt lat="35.886269" lon="139.523953">
<ele>20.0</ele>
<time>2026-04-03T01:28:51Z</time>
<speed>4.8</speed>
</trkpt>
<trkpt lat="35.886440" lon="139.523886">
<ele>20.0</ele>
<time>2026-04-03T01:28:56Z</time>
<speed>5.2</speed>
</trkpt>
<trkpt lat="35.886847" lon="139.523790">
<ele>20.2</ele>
<time>2026-04-03T01:29:05Z</time>
<speed>5.7</speed>
</trkpt>
<trkpt lat="35.887273" lon="139.523712">
<ele>20.2</ele>
<time>2026-04-03T01:29:13Z</time>
<speed>5.7</speed>
</trkpt>
<trkpt lat="35.887807" lon="139.523610">
<ele>20.2</ele>
<time>2026-04-03T01:29:24Z</time>
<speed>5.5</speed>
</trkpt>
<trkpt lat="35.887935" lon="139.523594">
<ele>20.2</ele>
<time>2026-04-03T01:29:25Z</time>
<speed>5.2</speed>
</trkpt>
<trkpt lat="35.888059" lon="139.523564">
<ele>20.0</ele>
<time>2026-04-03T01:29:28Z</time>
<speed>5.6</speed>
</trkpt>
<trkpt lat="35.888213" lon="139.523540">
<ele>20.0</ele>
<time>2026-04-03T01:29:31Z</time>
<speed>5.7</speed>
</trkpt>
<trkpt lat="35.888602" lon="139.523468">
<ele>20.2</ele>
<time>2026-04-03T01:29:40Z</time>
<speed>4.9</speed>
</trkpt>
<trkpt lat="35.888992" lon="139.523408">
<ele>20.2</ele>
<time>2026-04-03T01:29:49Z</time>
<speed>0.1</speed>
</trkpt>
<trkpt lat="35.889049" lon="139.523393">
<ele>19.4</ele>
<time>2026-04-03T01:30:57Z</time>
<speed>3.1</speed>
</trkpt>
<trkpt lat="35.889078" lon="139.523385">
<ele>19.4</ele>
<time>2026-04-03T01:30:58Z</time>
<speed>3.6</speed>
</trkpt>
<trkpt lat="35.889122" lon="139.523374">
<ele>19.4</ele>
<time>2026-04-03T01:30:59Z</time>
<speed>4.1</speed>
</trkpt>
<trkpt lat="35.889204" lon="139.523347">
<ele>19.4</ele>
<time>2026-04-03T01:31:01Z</time>
<speed>5.0</speed>
</trkpt>
<trkpt lat="35.889313" lon="139.523307">
<ele>19.6</ele>
<time>2026-04-03T01:31:04Z</time>
<speed>4.8</speed>
</trkpt>
<trkpt lat="35.889554" lon="139.523194">
<ele>19.6</ele>
<time>2026-04-03T01:31:10Z</time>
<speed>5.1</speed>
</trkpt>
<trkpt lat="35.889913" lon="139.522943">
<ele>19.8</ele>
<time>2026-04-03T01:31:19Z</time>
<speed>5.3</speed>
</trkpt>
<trkpt lat="35.890241" lon="139.522585">
<ele>20.0</ele>
<time>2026-04-03T01:31:28Z</time>
<speed>5.4</speed>
</trkpt>
<trkpt lat="35.890576" lon="139.522148">
<ele>20.2</ele>
<time>2026-04-03T01:31:38Z</time>
<speed>5.3</speed>
</trkpt>
<trkpt lat="35.890682" lon="139.522011">
<ele>20.2</ele>
<time>2026-04-03T01:31:41Z</time>
<speed>5.2</speed>
</trkpt>
<trkpt lat="35.890799" lon="139.521866">
<ele>20.2</ele>
<time>2026-04-03T01:31:45Z</time>
<speed>4.0</speed>
</trkpt>
<trkpt lat="35.890869" lon="139.521840">
<ele>20.2</ele>
<time>2026-04-03T01:31:51Z</time>
<speed>2.0</speed>
</trkpt>
<trkpt lat="35.890958" lon="139.521861">
<ele>20.4</ele>
<time>2026-04-03T01:31:55Z</time>
<speed>2.6</speed>
</trkpt>
<trkpt lat="35.891030" lon="139.521528">
<ele>20.4</ele>
<time>2026-04-03T01:32:00Z</time>
<speed>3.6</speed>
</trkpt>
<trkpt lat="35.891045" lon="139.521443">
<ele>20.6</ele>
<time>2026-04-03T01:32:01Z</time>
<speed>4.1</speed>
</trkpt>
<trkpt lat="35.891104" lon="139.521177">
<ele>20.4</ele>
<time>2026-04-03T01:32:07Z</time>
<speed>4.7</speed>
</trkpt>
<trkpt lat="35.891203" lon="139.520828">
<ele>20.4</ele>
<time>2026-04-03T01:32:14Z</time>
<speed>5.1</speed>
</trkpt>
<trkpt lat="35.891260" lon="139.520402">
<ele>20.4</ele>
<time>2026-04-03T01:32:22Z</time>
<speed>5.2</speed>
</trkpt>
<trkpt lat="35.891260" lon="139.519804">
<ele>20.6</ele>
<time>2026-04-03T01:32:32Z</time>
<speed>5.2</speed>
</trkpt>
<trkpt lat="35.891256" lon="139.519219">
<ele>20.6</ele>
<time>2026-04-03T01:32:42Z</time>
<speed>5.3</speed>
</trkpt>
<trkpt lat="35.891214" lon="139.518857">
<ele>20.4</ele>
<time>2026-04-03T01:32:51Z</time>
<speed>5.0</speed>
</trkpt>
<trkpt lat="35.891108" lon="139.518436">
<ele>20.4</ele>
<time>2026-04-03T01:32:58Z</time>
<speed>4.9</speed>
</trkpt>
<trkpt lat="35.890945" lon="139.518026">
<ele>20.4</ele>
<time>2026-04-03T01:33:07Z</time>
<speed>4.6</speed>
</trkpt>
<trkpt lat="35.890832" lon="139.517760">
<ele>21.0</ele>
<time>2026-04-03T01:33:14Z</time>
<speed>5.2</speed>
</trkpt>
<trkpt lat="35.890526" lon="139.517425">
<ele>21.4</ele>
<time>2026-04-03T01:33:21Z</time>
<speed>5.5</speed>
</trkpt>
<trkpt lat="35.890323" lon="139.517167">
<ele>21.4</ele>
<time>2026-04-03T01:33:30Z</time>
<speed>5.6</speed>
</trkpt>
<trkpt lat="35.890143" lon="139.516845">
<ele>21.2</ele>
<time>2026-04-03T01:33:32Z</time>
<speed>5.5</speed>
</trkpt>
<trkpt lat="35.890054" lon="139.516591">
<ele>20.8</ele>
<time>2026-04-03T01:33:36Z</time>
<speed>5.7</speed>
</trkpt>
<trkpt lat="35.889956" lon="139.516116">
<ele>20.8</ele>
<time>2026-04-03T01:33:44Z</time>
<speed>5.6</speed>
</trkpt>
<trkpt lat="35.889934" lon="139.515724">
<ele>20.8</ele>
<time>2026-04-03T01:33:51Z</time>
<speed>4.2</speed>
</trkpt>
<trkpt lat="35.889987" lon="139.515384">
<ele>20.8</ele>
<time>2026-04-03T01:33:56Z</time>
<speed>3.4</speed>
</trkpt>
<trkpt lat="35.890043" lon="139.515190">
<ele>20.8</ele>
<time>2026-04-03T01:34:02Z</time>
<speed>4.6</speed>
</trkpt>
<trkpt lat="35.890115" lon="139.514997">
<ele>20.6</ele>
<time>2026-04-03T01:34:06Z</time>
<speed>4.7</speed>
</trkpt>
<trkpt lat="35.890221" lon="139.514740">
<ele>20.6</ele>
<time>2026-04-03T01:34:08Z</time>
<speed>5.1</speed>
</trkpt>
<trkpt lat="35.890315" lon="139.514493">
<ele>20.8</ele>
<time>2026-04-03T01:34:17Z</time>
<speed>5.5</speed>
</trkpt>
<trkpt lat="35.890508" lon="139.513994">
<ele>21.0</ele>
<time>2026-04-03T01:34:27Z</time>
<speed>5.5</speed>
</trkpt>
<trkpt lat="35.890589" lon="139.513651">
<ele>21.0</ele>
<time>2026-04-03T01:34:33Z</time>
<speed>5.7</speed>
</trkpt>
<trkpt lat="35.890621" lon="139.513401">
<ele>21.0</ele>
<time>2026-04-03T01:34:36Z</time>
<speed>5.4</speed>
</trkpt>
<trkpt lat="35.890643" lon="139.513101">
<ele>21.0</ele>
<time>2026-04-03T01:34:41Z</time>
<speed>5.6</speed>
</trkpt>
<trkpt lat="35.890636" lon="139.512766">
<ele>21.0</ele>
<time>2026-04-03T01:34:44Z</time>
<speed>5.6</speed>
</trkpt>
<trkpt lat="35.890610" lon="139.512519">
<ele>21.0</ele>
<time>2026-04-03T01:34:52Z</time>
<speed>5.6</speed>
</trkpt>
<trkpt lat="35.890506" lon="139.512047">
<ele>21.0</ele>
<time>2026-04-03T01:35:01Z</time>
<speed>5.6</speed>
</trkpt>
<trkpt lat="35.890360" lon="139.511610">
<ele>21.0</ele>
<time>2026-04-03T01:35:06Z</time>
<speed>5.8</speed>
</trkpt>
<trkpt lat="35.890250" lon="139.511213">
<ele>21.0</ele>
<time>2026-04-03T01:35:08Z</time>
<speed>5.8</speed>
</trkpt>
<trkpt lat="35.890174" lon="139.510810">
<ele>21.2</ele>
<time>2026-04-03T01:35:17Z</time>
<speed>5.7</speed>
</trkpt>
<trkpt lat="35.890145" lon="139.510405">
<ele>21.4</ele>
<time>2026-04-03T01:35:26Z</time>
<speed>5.7</speed>
</trkpt>
<trkpt lat="35.890158" lon="139.510086">
<ele>21.4</ele>
<time>2026-04-03T01:35:28Z</time>
<speed>5.8</speed>
</trkpt>
<trkpt lat="35.890206" lon="139.509743">
<ele>21.4</ele>
<time>2026-04-03T01:35:35Z</time>
<speed>5.8</speed>
</trkpt>
<trkpt lat="35.890339" lon="139.509188">
<ele>21.6</ele>
<time>2026-04-03T01:35:44Z</time>
<speed>5.7</speed>
</trkpt>
<trkpt lat="35.890521" lon="139.508547">
<ele>21.4</ele>
<time>2026-04-03T01:35:55Z</time>
<speed>5.6</speed>
</trkpt>
<trkpt lat="35.890667" lon="139.508101">
<ele>21.0</ele>
<time>2026-04-03T01:36:03Z</time>
<speed>4.9</speed>
</trkpt>
<trkpt lat="35.890721" lon="139.507940">
<ele>21.0</ele>
<time>2026-04-03T01:36:06Z</time>
<speed>4.8</speed>
</trkpt>
<trkpt lat="35.890780" lon="139.507782">
<ele>21.0</ele>
<time>2026-04-03T01:36:09Z</time>
<speed>5.2</speed>
</trkpt>
<trkpt lat="35.890954" lon="139.507385">
<ele>21.2</ele>
<time>2026-04-03T01:36:17Z</time>
<speed>5.3</speed>
</trkpt>
<trkpt lat="35.891188" lon="139.506943">
<ele>21.2</ele>
<time>2026-04-03T01:36:26Z</time>
<speed>5.7</speed>
</trkpt>
<trkpt lat="35.891519" lon="139.506449">
<ele>21.2</ele>
<time>2026-04-03T01:36:36Z</time>
<speed>5.9</speed>
</trkpt>
<trkpt lat="35.891669" lon="139.506291">
<ele>21.0</ele>
<time>2026-04-03T01:36:43Z</time>
<speed>5.9</speed>
</trkpt>
<trkpt lat="35.892255" lon="139.505902">
<ele>20.8</ele>
<time>2026-04-03T01:36:52Z</time>
<speed>5.3</speed>
</trkpt>
<trkpt lat="35.892459" lon="139.505749">
<ele>20.8</ele>
<time>2026-04-03T01:36:57Z</time>
<speed>5.0</speed>
</trkpt>
<trkpt lat="35.892605" lon="139.505661">
<ele>20.8</ele>
<time>2026-04-03T01:36:59Z</time>
<speed>3.6</speed>
</trkpt>
<trkpt lat="35.892701" lon="139.505615">
<ele>20.8</ele>
<time>2026-04-03T01:37:04Z</time>
<speed>3.8</speed>
</trkpt>
<trkpt lat="35.892783" lon="139.505575">
<ele>20.6</ele>
<time>2026-04-03T01:37:08Z</time>
<speed>1.6</speed>
</trkpt>
<trkpt lat="35.892855" lon="139.505631">
<ele>20.4</ele>
<time>2026-04-03T01:37:10Z</time>
<speed>1.4</speed>
</trkpt>
<trkpt lat="35.892879" lon="139.505626">
<ele>20.0</ele>
<time>2026-04-03T01:37:12Z</time>
<speed>2.2</speed>
</trkpt>
<trkpt lat="35.892910" lon="139.505596">
<ele>19.8</ele>
<time>2026-04-03T01:37:14Z</time>
<speed>2.1</speed>
</trkpt>
<trkpt lat="35.892877" lon="139.505559">
<ele>19.8</ele>
<time>2026-04-03T01:37:16Z</time>
<speed>3.2</speed>
</trkpt>
<trkpt lat="35.892779" lon="139.505470">
<ele>19.6</ele>
<time>2026-04-03T01:37:20Z</time>
<speed>2.6</speed>
</trkpt>
<trkpt lat="35.892714" lon="139.505392">
<ele>19.6</ele>
<time>2026-04-03T01:37:22Z</time>
<speed>2.5</speed>
</trkpt>
<trkpt lat="35.892683" lon="139.505371">
<ele>19.8</ele>
<time>2026-04-03T01:37:25Z</time>
<speed>2.5</speed>
</trkpt>
<trkpt lat="35.892751" lon="139.505315">
<ele>19.8</ele>
<time>2026-04-03T01:37:26Z</time>
<speed>3.8</speed>
</trkpt>
<trkpt lat="35.892907" lon="139.505194">
<ele>20.6</ele>
<time>2026-04-03T01:37:30Z</time>
<speed>5.1</speed>
</trkpt>
<trkpt lat="35.893142" lon="139.505036">
<ele>20.8</ele>
<time>2026-04-03T01:37:37Z</time>
<speed>5.4</speed>
</trkpt>
<trkpt lat="35.893283" lon="139.504974">
<ele>20.8</ele>
<time>2026-04-03T01:37:40Z</time>
<speed>4.9</speed>
</trkpt>
<trkpt lat="35.893474" lon="139.504907">
<ele>20.8</ele>
<time>2026-04-03T01:37:43Z</time>
<speed>4.7</speed>
</trkpt>
<trkpt lat="35.893615" lon="139.504853">
<ele>20.8</ele>
<time>2026-04-03T01:37:48Z</time>
<speed>4.6</speed>
</trkpt>
<trkpt lat="35.893698" lon="139.504826">
<ele>20.6</ele>
<time>2026-04-03T01:37:50Z</time>
<speed>5.1</speed>
</trkpt>
<trkpt lat="35.893757" lon="139.504805">
<ele>20.6</ele>
<time>2026-04-03T01:37:51Z</time>
<speed>5.4</speed>
</trkpt>
<trkpt lat="35.893881" lon="139.504770">
<ele>20.6</ele>
<time>2026-04-03T01:37:54Z</time>
<speed>5.1</speed>
</trkpt>
<trkpt lat="35.894024" lon="139.504735">
<ele>20.6</ele>
<time>2026-04-03T01:37:57Z</time>
<speed>5.2</speed>
</trkpt>
<trkpt lat="35.894315" lon="139.504724">
<ele>20.6</ele>
<time>2026-04-03T01:38:04Z</time>
<speed>5.6</speed>
</trkpt>
<trkpt lat="35.894747" lon="139.504673">
<ele>20.6</ele>
<time>2026-04-03T01:38:12Z</time>
<speed>5.3</speed>
</trkpt>
<trkpt lat="35.894997" lon="139.504625">
<ele>20.4</ele>
<time>2026-04-03T01:38:21Z</time>
<speed>6.0</speed>
</trkpt>
<trkpt lat="35.895475" lon="139.504585">
<ele>20.4</ele>
<time>2026-04-03T01:38:28Z</time>
<speed>6.3</speed>
</trkpt>
<trkpt lat="35.896032" lon="139.504397">
<ele>20.6</ele>
<time>2026-04-03T01:38:37Z</time>
<speed>6.3</speed>
</trkpt>
<trkpt lat="35.896497" lon="139.504140">
<ele>20.8</ele>
<time>2026-04-03T01:38:46Z</time>
<speed>6.3</speed>
</trkpt>
<trkpt lat="35.896958" lon="139.503731">
<ele>21.0</ele>
<time>2026-04-03T01:38:56Z</time>
<speed>6.4</speed>
</trkpt>
<trkpt lat="35.897316" lon="139.503271">
<ele>21.0</ele>
<time>2026-04-03T01:39:05Z</time>
<speed>6.3</speed>
</trkpt>
<trkpt lat="35.897568" lon="139.502815">
<ele>21.0</ele>
<time>2026-04-03T01:39:13Z</time>
<speed>6.0</speed>
</trkpt>
<trkpt lat="35.897789" lon="139.502259">
<ele>21.0</ele>
<time>2026-04-03T01:39:22Z</time>
<speed>5.9</speed>
</trkpt>
<trkpt lat="35.897972" lon="139.501753">
<ele>21.0</ele>
<time>2026-04-03T01:39:30Z</time>
<speed>5.8</speed>
</trkpt>
<trkpt lat="35.898150" lon="139.501299">
<ele>21.0</ele>
<time>2026-04-03T01:39:38Z</time>
<speed>5.7</speed>
</trkpt>
<trkpt lat="35.898356" lon="139.500766">
<ele>21.0</ele>
<time>2026-04-03T01:39:47Z</time>
<speed>5.8</speed>
</trkpt>
<trkpt lat="35.898604" lon="139.500224">
<ele>21.0</ele>
<time>2026-04-03T01:39:57Z</time>
<speed>5.9</speed>
</trkpt>
<trkpt lat="35.898930" lon="139.499677">
<ele>21.2</ele>
<time>2026-04-03T01:40:07Z</time>
<speed>6.0</speed>
</trkpt>
<trkpt lat="35.899195" lon="139.499207">
<ele>21.2</ele>
<time>2026-04-03T01:40:17Z</time>
<speed>6.0</speed>
</trkpt>
<trkpt lat="35.899428" lon="139.498818">
<ele>21.2</ele>
<time>2026-04-03T01:40:18Z</time>
<speed>5.8</speed>
</trkpt>
<trkpt lat="35.899519" lon="139.498668">
<ele>21.4</ele>
<time>2026-04-03T01:40:26Z</time>
<speed>5.8</speed>
</trkpt>
<trkpt lat="35.899634" lon="139.498475">
<ele>21.4</ele>
<time>2026-04-03T01:40:28Z</time>
<speed>5.7</speed>
</trkpt>
<trkpt lat="35.899827" lon="139.498140">
<ele>21.4</ele>
<time>2026-04-03T01:40:37Z</time>
<speed>5.6</speed>
</trkpt>
<trkpt lat="35.900021" lon="139.497799">
<ele>21.6</ele>
<time>2026-04-03T01:40:46Z</time>
<speed>4.8</speed>
</trkpt>
<trkpt lat="35.900090" lon="139.497617">
<ele>21.6</ele>
<time>2026-04-03T01:40:47Z</time>
<speed>4.3</speed>
</trkpt>
<trkpt lat="35.900225" lon="139.497559">
<ele>21.6</ele>
<time>2026-04-03T01:40:50Z</time>
<speed>4.9</speed>
</trkpt>
<trkpt lat="35.900303" lon="139.497364">
<ele>21.6</ele>
<time>2026-04-03T01:40:54Z</time>
<speed>3.1</speed>
</trkpt>
<trkpt lat="35.900367" lon="139.497214">
<ele>22.0</ele>
<time>2026-04-03T01:40:59Z</time>
<speed>0.9</speed>
</trkpt>
<trkpt lat="35.900373" lon="139.497195">
<ele>22.6</ele>
<time>2026-04-03T01:41:01Z</time>
<speed>2.2</speed>
</trkpt>
<trkpt lat="35.900377" lon="139.497122">
<ele>23.2</ele>
<time>2026-04-03T01:41:04Z</time>
<speed>2.6</speed>
</trkpt>
<trkpt lat="35.900382" lon="139.497094">
<ele>23.4</ele>
<time>2026-04-03T01:41:05Z</time>
<speed>2.8</speed>
</trkpt>
<trkpt lat="35.900387" lon="139.497063">
<ele>23.6</ele>
<time>2026-04-03T01:41:06Z</time>
<speed>3.2</speed>
</trkpt>
<trkpt lat="35.900408" lon="139.496892">
<ele>24.0</ele>
<time>2026-04-03T01:41:11Z</time>
<speed>5.1</speed>
</trkpt>
<trkpt lat="35.900421" lon="139.496640">
<ele>24.0</ele>
<time>2026-04-03T01:41:16Z</time>
<speed>6.5</speed>
</trkpt>
<trkpt lat="35.900427" lon="139.496286">
<ele>23.6</ele>
<time>2026-04-03T01:41:22Z</time>
<speed>6.0</speed>
</trkpt>
<trkpt lat="35.900399" lon="139.495860">
<ele>22.4</ele>
<time>2026-04-03T01:41:27Z</time>
<speed>5.9</speed>
</trkpt>
<trkpt lat="35.900381" lon="139.495420">
<ele>22.0</ele>
<time>2026-04-03T01:41:30Z</time>
<speed>6.1</speed>
</trkpt>
<trkpt lat="35.900384" lon="139.495160">
<ele>21.8</ele>
<time>2026-04-03T01:41:38Z</time>
<speed>6.0</speed>
</trkpt>
<trkpt lat="35.900434" lon="139.494988">
<ele>22.0</ele>
<time>2026-04-03T01:41:42Z</time>
<speed>5.8</speed>
</trkpt>
<trkpt lat="35.900605" lon="139.494752">
<ele>22.0</ele>
<time>2026-04-03T01:41:46Z</time>
<speed>5.4</speed>
</trkpt>
<trkpt lat="35.900753" lon="139.494604">
<ele>22.0</ele>
<time>2026-04-03T01:41:48Z</time>
<speed>3.6</speed>
</trkpt>
<trkpt lat="35.900855" lon="139.494519">
<ele>21.6</ele>
<time>2026-04-03T01:41:53Z</time>
<speed>0.5</speed>
</trkpt>
<trkpt lat="35.900862" lon="139.494462">
<ele>21.4</ele>
<time>2026-04-03T01:41:56Z</time>
<speed>0.2</speed>
</trkpt>
<trkpt lat="35.900896" lon="139.494422">
<ele>21.2</ele>
<time>2026-04-03T01:41:57Z</time>
<speed>1.0</speed>
</trkpt>
<trkpt lat="35.900936" lon="139.494374">
<ele>20.4</ele>
<time>2026-04-03T01:42:07Z</time>
<speed>1.2</speed>
</trkpt>
<trkpt lat="35.900985" lon="139.494331">
<ele>19.2</ele>
<time>2026-04-03T01:42:15Z</time>
<speed>1.2</speed>
</trkpt>
<trkpt lat="35.901048" lon="139.494272">
<ele>19.2</ele>
<time>2026-04-03T01:42:16Z</time>
<speed>1.3</speed>
</trkpt>
<trkpt lat="35.901138" lon="139.494213">
<ele>18.4</ele>
<time>2026-04-03T01:42:24Z</time>
<speed>1.3</speed>
</trkpt>
<trkpt lat="35.901181" lon="139.494186">
<ele>18.6</ele>
<time>2026-04-03T01:42:32Z</time>
<speed>1.5</speed>
</trkpt>
<trkpt lat="35.901222" lon="139.494157">
<ele>19.6</ele>
<time>2026-04-03T01:42:39Z</time>
<speed>2.6</speed>
</trkpt>
<trkpt lat="35.901305" lon="139.494084">
<ele>20.2</ele>
<time>2026-04-03T01:42:43Z</time>
<speed>3.3</speed>
</trkpt>
<trkpt lat="35.901368" lon="139.494036">
<ele>20.4</ele>
<time>2026-04-03T01:42:44Z</time>
<speed>3.6</speed>
</trkpt>
<trkpt lat="35.901503" lon="139.493939">
<ele>20.6</ele>
<time>2026-04-03T01:42:50Z</time>
<speed>1.6</speed>
</trkpt>
<trkpt lat="35.901579" lon="139.493907">
<ele>20.8</ele>
<time>2026-04-03T01:42:54Z</time>
<speed>1.1</speed>
</trkpt>
<trkpt lat="35.901633" lon="139.493848">
<ele>21.0</ele>
<time>2026-04-03T01:43:00Z</time>
<speed>2.7</speed>
</trkpt>
<trkpt lat="35.901731" lon="139.493765">
<ele>21.0</ele>
<time>2026-04-03T01:43:02Z</time>
<speed>3.4</speed>
</trkpt>
<trkpt lat="35.901863" lon="139.493706">
<ele>21.0</ele>
<time>2026-04-03T01:43:08Z</time>
<speed>3.4</speed>
</trkpt>
<trkpt lat="35.902078" lon="139.493628">
<ele>20.0</ele>
<time>2026-04-03T01:43:16Z</time>
<speed>5.1</speed>
</trkpt>
<trkpt lat="35.902235" lon="139.493604">
<ele>19.8</ele>
<time>2026-04-03T01:43:17Z</time>
<speed>4.9</speed>
</trkpt>
<trkpt lat="35.902361" lon="139.493609">
<ele>19.6</ele>
<time>2026-04-03T01:43:21Z</time>
<speed>5.1</speed>
</trkpt>
<trkpt lat="35.902567" lon="139.493604">
<ele>19.6</ele>
<time>2026-04-03T01:43:27Z</time>
<speed>5.3</speed>
</trkpt>
<trkpt lat="35.902826" lon="139.493599">
<ele>19.6</ele>
<time>2026-04-03T01:43:28Z</time>
<speed>5.6</speed>
</trkpt>
<trkpt lat="35.903141" lon="139.493604">
<ele>19.6</ele>
<time>2026-04-03T01:43:38Z</time>
<speed>5.1</speed>
</trkpt>
<trkpt lat="35.903536" lon="139.493564">
<ele>19.6</ele>
<time>2026-04-03T01:43:47Z</time>
<speed>5.4</speed>
</trkpt>
<trkpt lat="35.903684" lon="139.493593">
<ele>19.8</ele>
<time>2026-04-03T01:43:49Z</time>
<speed>5.7</speed>
</trkpt>
<trkpt lat="35.903830" lon="139.493664">
<ele>20.0</ele>
<time>2026-04-03T01:43:53Z</time>
<speed>5.8</speed>
</trkpt>
<trkpt lat="35.903877" lon="139.493691">
<ele>20.0</ele>
<time>2026-04-03T01:43:54Z</time>
<speed>5.9</speed>
</trkpt>
<trkpt lat="35.904111" lon="139.493841">
<ele>20.0</ele>
<time>2026-04-03T01:43:59Z</time>
<speed>5.7</speed>
</trkpt>
<trkpt lat="35.904517" lon="139.494118">
<ele>20.2</ele>
<time>2026-04-03T01:44:08Z</time>
<speed>5.7</speed>
</trkpt>
<trkpt lat="35.904880" lon="139.494362">
<ele>20.2</ele>
<time>2026-04-03T01:44:16Z</time>
<speed>2.9</speed>
</trkpt>
<trkpt lat="35.904983" lon="139.494468">
<ele>20.4</ele>
<time>2026-04-03T01:44:21Z</time>
<speed>2.7</speed>
</trkpt>
<trkpt lat="35.905040" lon="139.494332">
<ele>20.8</ele>
<time>2026-04-03T01:44:25Z</time>
<speed>3.6</speed>
</trkpt>
<trkpt lat="35.905088" lon="139.494229">
<ele>21.2</ele>
<time>2026-04-03T01:44:28Z</time>
<speed>3.1</speed>
</trkpt>
<trkpt lat="35.905129" lon="139.494138">
<ele>21.4</ele>
<time>2026-04-03T01:44:31Z</time>
<speed>2.0</speed>
</trkpt>
<trkpt lat="35.905175" lon="139.494104">
<ele>21.6</ele>
<time>2026-04-03T01:44:34Z</time>
<speed>3.6</speed>
</trkpt>
<trkpt lat="35.905203" lon="139.494123">
<ele>21.6</ele>
<time>2026-04-03T01:44:35Z</time>
<speed>4.1</speed>
</trkpt>
<trkpt lat="35.905294" lon="139.494201">
<ele>21.6</ele>
<time>2026-04-03T01:44:38Z</time>
<speed>5.4</speed>
</trkpt>
<trkpt lat="35.905326" lon="139.494253">
<ele>21.6</ele>
<time>2026-04-03T01:44:39Z</time>
<speed>5.7</speed>
</trkpt>
<trkpt lat="35.905646" lon="139.494476">
<ele>21.0</ele>
<time>2026-04-03T01:44:46Z</time>
<speed>5.6</speed>
</trkpt>
<trkpt lat="35.905809" lon="139.494607">
<ele>20.2</ele>
<time>2026-04-03T01:44:50Z</time>
<speed>5.8</speed>
</trkpt>
<trkpt lat="35.905996" lon="139.494739">
<ele>20.0</ele>
<time>2026-04-03T01:44:54Z</time>
<speed>6.1</speed>
</trkpt>
<trkpt lat="35.906234" lon="139.494900">
<ele>19.8</ele>
<time>2026-04-03T01:44:59Z</time>
<speed>6.3</speed>
</trkpt>
<trkpt lat="35.906515" lon="139.495095">
<ele>19.8</ele>
<time>2026-04-03T01:45:04Z</time>
<speed>6.4</speed>
</trkpt>
<trkpt lat="35.906951" lon="139.495369">
<ele>20.0</ele>
<time>2026-04-03T01:45:14Z</time>
<speed>6.0</speed>
</trkpt>
<trkpt lat="35.907073" lon="139.495452">
<ele>20.0</ele>
<time>2026-04-03T01:45:15Z</time>
<speed>5.7</speed>
</trkpt>
<trkpt lat="35.907272" lon="139.495532">
<ele>20.0</ele>
<time>2026-04-03T01:45:20Z</time>
<speed>4.4</speed>
</trkpt>
<trkpt lat="35.907350" lon="139.495545">
<ele>20.0</ele>
<time>2026-04-03T01:45:22Z</time>
<speed>2.6</speed>
</trkpt>
<trkpt lat="35.907427" lon="139.495605">
<ele>20.0</ele>
<time>2026-04-03T01:45:25Z</time>
<speed>3.7</speed>
</trkpt>
<trkpt lat="35.907521" lon="139.495642">
<ele>20.0</ele>
<time>2026-04-03T01:45:26Z</time>
<speed>4.9</speed>
</trkpt>
<trkpt lat="35.907577" lon="139.495667">
<ele>20.2</ele>
<time>2026-04-03T01:45:29Z</time>
<speed>5.6</speed>
</trkpt>
<trkpt lat="35.907723" lon="139.495715">
<ele>20.2</ele>
<time>2026-04-03T01:45:30Z</time>
<speed>5.4</speed>
</trkpt>
<trkpt lat="35.907888" lon="139.495771">
<ele>20.4</ele>
<time>2026-04-03T01:45:36Z</time>
<speed>5.4</speed>
</trkpt>
<trkpt lat="35.908205" lon="139.495857">
<ele>20.4</ele>
<time>2026-04-03T01:45:38Z</time>
<speed>5.4</speed>
</trkpt>
<trkpt lat="35.908327" lon="139.495905">
<ele>20.4</ele>
<time>2026-04-03T01:45:46Z</time>
<speed>4.8</speed>
</trkpt>
<trkpt lat="35.908541" lon="139.495882">
<ele>20.4</ele>
<time>2026-04-03T01:45:50Z</time>
<speed>4.5</speed>
</trkpt>
<trkpt lat="35.908581" lon="139.495877">
<ele>20.4</ele>
<time>2026-04-03T01:45:51Z</time>
<speed>5.3</speed>
</trkpt>
<trkpt lat="35.908916" lon="139.495859">
<ele>20.2</ele>
<time>2026-04-03T01:45:58Z</time>
<speed>5.0</speed>
</trkpt>
<trkpt lat="35.909044" lon="139.495860">
<ele>19.2</ele>
<time>2026-04-03T01:46:02Z</time>
<speed>2.8</speed>
</trkpt>
<trkpt lat="35.909104" lon="139.495889">
<ele>19.0</ele>
<time>2026-04-03T01:46:03Z</time>
<speed>2.9</speed>
</trkpt>
<trkpt lat="35.909141" lon="139.495913">
<ele>19.0</ele>
<time>2026-04-03T01:46:04Z</time>
<speed>4.5</speed>
</trkpt>
<trkpt lat="35.909178" lon="139.495954">
<ele>19.0</ele>
<time>2026-04-03T01:46:05Z</time>
<speed>3.5</speed>
</trkpt>
<trkpt lat="35.909235" lon="139.496021">
<ele>19.0</ele>
<time>2026-04-03T01:46:08Z</time>
<speed>3.4</speed>
</trkpt>
<trkpt lat="35.909296" lon="139.496088">
<ele>19.0</ele>
<time>2026-04-03T01:46:09Z</time>
<speed>4.5</speed>
</trkpt>
<trkpt lat="35.909376" lon="139.496144">
<ele>19.0</ele>
<time>2026-04-03T01:46:13Z</time>
<speed>5.0</speed>
</trkpt>
<trkpt lat="35.909448" lon="139.496168">
<ele>19.2</ele>
<time>2026-04-03T01:46:14Z</time>
<speed>4.8</speed>
</trkpt>
<trkpt lat="35.909541" lon="139.496184">
<ele>20.0</ele>
<time>2026-04-03T01:46:18Z</time>
<speed>4.7</speed>
</trkpt>
<trkpt lat="35.909682" lon="139.496216">
<ele>20.0</ele>
<time>2026-04-03T01:46:20Z</time>
<speed>4.6</speed>
</trkpt>
<trkpt lat="35.909845" lon="139.496257">
<ele>20.2</ele>
<time>2026-04-03T01:46:21Z</time>
<speed>5.9</speed>
</trkpt>
<trkpt lat="35.910023" lon="139.496294">
<ele>20.2</ele>
<time>2026-04-03T01:46:24Z</time>
<speed>5.6</speed>
</trkpt>
<trkpt lat="35.910256" lon="139.496353">
<ele>20.2</ele>
<time>2026-04-03T01:46:31Z</time>
<speed>5.6</speed>
</trkpt>
<trkpt lat="35.910653" lon="139.496453">
<ele>20.2</ele>
<time>2026-04-03T01:46:40Z</time>
<speed>5.3</speed>
</trkpt>
<trkpt lat="35.911087" lon="139.496570">
<ele>20.2</ele>
<time>2026-04-03T01:46:49Z</time>
<speed>2.1</speed>
</trkpt>
<trkpt lat="35.911149" lon="139.496581">
<ele>20.4</ele>
<time>2026-04-03T01:46:53Z</time>
<speed>1.9</speed>
</trkpt>
<trkpt lat="35.911175" lon="139.496597">
<ele>20.4</ele>
<time>2026-04-03T01:46:54Z</time>
<speed>1.6</speed>
</trkpt>
<trkpt lat="35.911197" lon="139.496617">
<ele>20.6</ele>
<time>2026-04-03T01:46:57Z</time>
<speed>1.4</speed>
</trkpt>
<trkpt lat="35.911195" lon="139.496632">
<ele>20.6</ele>
<time>2026-04-03T01:46:58Z</time>
<speed>1.9</speed>
</trkpt>
<trkpt lat="35.911159" lon="139.496740">
<ele>21.0</ele>
<time>2026-04-03T01:47:03Z</time>
<speed>0.2</speed>
</trkpt>
<trkpt lat="35.911142" lon="139.496823">
<ele>21.8</ele>
<time>2026-04-03T01:47:41Z</time>
<speed>0.3</speed>
</trkpt>
<trkpt lat="35.911116" lon="139.496895">
<ele>21.8</ele>
<time>2026-04-03T01:48:07Z</time>
<speed>2.8</speed>
</trkpt>
<trkpt lat="35.911101" lon="139.496962">
<ele>21.8</ele>
<time>2026-04-03T01:48:09Z</time>
<speed>3.1</speed>
</trkpt>
<trkpt lat="35.911185" lon="139.496979">
<ele>21.8</ele>
<time>2026-04-03T01:48:12Z</time>
<speed>4.8</speed>
</trkpt>
<trkpt lat="35.911227" lon="139.496992">
<ele>21.8</ele>
<time>2026-04-03T01:48:13Z</time>
<speed>6.1</speed>
</trkpt>
<trkpt lat="35.911387" lon="139.497042">
<ele>21.8</ele>
<time>2026-04-03T01:48:16Z</time>
<speed>5.7</speed>
</trkpt>
<trkpt lat="35.911703" lon="139.497099">
<ele>20.8</ele>
<time>2026-04-03T01:48:22Z</time>
<speed>5.2</speed>
</trkpt>
<trkpt lat="35.911883" lon="139.497142">
<ele>20.2</ele>
<time>2026-04-03T01:48:25Z</time>
<speed>5.3</speed>
</trkpt>
<trkpt lat="35.912167" lon="139.497214">
<ele>20.0</ele>
<time>2026-04-03T01:48:32Z</time>
<speed>5.2</speed>
</trkpt>
<trkpt lat="35.912558" lon="139.497313">
<ele>20.0</ele>
<time>2026-04-03T01:48:39Z</time>
<speed>5.2</speed>
</trkpt>
<trkpt lat="35.912795" lon="139.497370">
<ele>20.0</ele>
<time>2026-04-03T01:48:45Z</time>
<speed>4.5</speed>
</trkpt>
<trkpt lat="35.913049" lon="139.497437">
<ele>19.8</ele>
<time>2026-04-03T01:48:51Z</time>
<speed>5.0</speed>
</trkpt>
<trkpt lat="35.913212" lon="139.497488">
<ele>19.8</ele>
<time>2026-04-03T01:48:56Z</time>
<speed>5.1</speed>
</trkpt>
<trkpt lat="35.913308" lon="139.497515">
<ele>19.8</ele>
<time>2026-04-03T01:48:57Z</time>
<speed>3.2</speed>
</trkpt>
<trkpt lat="35.913414" lon="139.497536">
<ele>19.8</ele>
<time>2026-04-03T01:49:00Z</time>
<speed>1.3</speed>
</trkpt>
<trkpt lat="35.913410" lon="139.497606">
<ele>19.8</ele>
<time>2026-04-03T01:49:05Z</time>
<speed>1.8</speed>
</trkpt>
<trkpt lat="35.913447" lon="139.497614">
<ele>20.4</ele>
<time>2026-04-03T01:49:17Z</time>
<speed>1.9</speed>
</trkpt>
<trkpt lat="35.913508" lon="139.497631">
<ele>20.4</ele>
<time>2026-04-03T01:49:19Z</time>
<speed>2.3</speed>
</trkpt>
<trkpt lat="35.913608" lon="139.497655">
<ele>20.4</ele>
<time>2026-04-03T01:49:24Z</time>
<speed>3.5</speed>
</trkpt>
<trkpt lat="35.913639" lon="139.497663">
<ele>20.2</ele>
<time>2026-04-03T01:49:25Z</time>
<speed>3.9</speed>
</trkpt>
<trkpt lat="35.913814" lon="139.497698">
<ele>19.6</ele>
<time>2026-04-03T01:49:30Z</time>
<speed>4.1</speed>
</trkpt>
<trkpt lat="35.913886" lon="139.497712">
<ele>19.6</ele>
<time>2026-04-03T01:49:32Z</time>
<speed>3.8</speed>
</trkpt>
<trkpt lat="35.913948" lon="139.497679">
<ele>19.6</ele>
<time>2026-04-03T01:49:34Z</time>
<speed>4.5</speed>
</trkpt>
<trkpt lat="35.914109" lon="139.497702">
<ele>19.6</ele>
<time>2026-04-03T01:49:38Z</time>
<speed>4.7</speed>
</trkpt>
<trkpt lat="35.914189" lon="139.497736">
<ele>19.6</ele>
<time>2026-04-03T01:49:40Z</time>
<speed>4.8</speed>
</trkpt>
<trkpt lat="35.914359" lon="139.497775">
<ele>19.6</ele>
<time>2026-04-03T01:49:44Z</time>
<speed>5.4</speed>
</trkpt>
<trkpt lat="35.914470" lon="139.497796">
<ele>19.8</ele>
<time>2026-04-03T01:49:46Z</time>
<speed>5.9</speed>
</trkpt>
<trkpt lat="35.914659" lon="139.497853">
<ele>19.8</ele>
<time>2026-04-03T01:49:50Z</time>
<speed>5.9</speed>
</trkpt>
<trkpt lat="35.914766" lon="139.497871">
<ele>19.8</ele>
<time>2026-04-03T01:49:52Z</time>
<speed>5.8</speed>
</trkpt>
<trkpt lat="35.915128" lon="139.497955">
<ele>19.8</ele>
<time>2026-04-03T01:49:59Z</time>
<speed>5.7</speed>
</trkpt>
<trkpt lat="35.915535" lon="139.498054">
<ele>20.0</ele>
<time>2026-04-03T01:50:07Z</time>
<speed>6.0</speed>
</trkpt>
<trkpt lat="35.915902" lon="139.498134">
<ele>20.4</ele>
<time>2026-04-03T01:50:14Z</time>
<speed>6.0</speed>
</trkpt>
<trkpt lat="35.916373" lon="139.498207">
<ele>20.6</ele>
<time>2026-04-03T01:50:22Z</time>
<speed>5.8</speed>
</trkpt>
<trkpt lat="35.916737" lon="139.498264">
<ele>20.8</ele>
<time>2026-04-03T01:50:30Z</time>
<speed>4.2</speed>
</trkpt>
<trkpt lat="35.916887" lon="139.498278">
<ele>21.0</ele>
<time>2026-04-03T01:50:34Z</time>
<speed>0.3</speed>
</trkpt>
<trkpt lat="35.916922" lon="139.498282">
<ele>21.4</ele>
<time>2026-04-03T01:50:49Z</time>
<speed>2.0</speed>
</trkpt>
<trkpt lat="35.916939" lon="139.498288">
<ele>21.4</ele>
<time>2026-04-03T01:50:50Z</time>
<speed>2.2</speed>
</trkpt>
<trkpt lat="35.916958" lon="139.498293">
<ele>21.4</ele>
<time>2026-04-03T01:50:51Z</time>
<speed>1.6</speed>
</trkpt>
<trkpt lat="35.917029" lon="139.498314">
<ele>21.4</ele>
<time>2026-04-03T01:50:56Z</time>
<speed>3.8</speed>
</trkpt>
<trkpt lat="35.917231" lon="139.498365">
<ele>21.4</ele>
<time>2026-04-03T01:51:01Z</time>
<speed>4.9</speed>
</trkpt>
<trkpt lat="35.917596" lon="139.498429">
<ele>20.8</ele>
<time>2026-04-03T01:51:09Z</time>
<speed>4.7</speed>
</trkpt>
<trkpt lat="35.917857" lon="139.498432">
<ele>20.8</ele>
<time>2026-04-03T01:51:16Z</time>
<speed>5.6</speed>
</trkpt>
<trkpt lat="35.918057" lon="139.498386">
<ele>20.8</ele>
<time>2026-04-03T01:51:22Z</time>
<speed>5.6</speed>
</trkpt>
<trkpt lat="35.918558" lon="139.498097">
<ele>20.8</ele>
<time>2026-04-03T01:51:29Z</time>
<speed>3.5</speed>
</trkpt>
<trkpt lat="35.918576" lon="139.498102">
<ele>20.6</ele>
<time>2026-04-03T01:51:33Z</time>
<speed>3.3</speed>
</trkpt>
<trkpt lat="35.918671" lon="139.498048">
<ele>20.6</ele>
<time>2026-04-03T01:51:37Z</time>
<speed>4.0</speed>
</trkpt>
<trkpt lat="35.918852" lon="139.497952">
<ele>20.8</ele>
<time>2026-04-03T01:51:43Z</time>
<speed>3.9</speed>
</trkpt>
<trkpt lat="35.918999" lon="139.497847">
<ele>21.0</ele>
<time>2026-04-03T01:51:48Z</time>
<speed>4.3</speed>
</trkpt>
<trkpt lat="35.919123" lon="139.497759">
<ele>21.0</ele>
<time>2026-04-03T01:51:50Z</time>
<speed>4.1</speed>
</trkpt>
<trkpt lat="35.919327" lon="139.497600">
<ele>21.0</ele>
<time>2026-04-03T01:51:58Z</time>
<speed>3.6</speed>
</trkpt>
<trkpt lat="35.919464" lon="139.497493">
<ele>21.2</ele>
<time>2026-04-03T01:52:04Z</time>
<speed>3.1</speed>
</trkpt>
<trkpt lat="35.919599" lon="139.497389">
<ele>21.2</ele>
<time>2026-04-03T01:52:09Z</time>
<speed>3.8</speed>
</trkpt>
<trkpt lat="35.919759" lon="139.497265">
<ele>21.2</ele>
<time>2026-04-03T01:52:16Z</time>
<speed>4.4</speed>
</trkpt>
<trkpt lat="35.919822" lon="139.497217">
<ele>21.2</ele>
<time>2026-04-03T01:52:19Z</time>
<speed>5.5</speed>
</trkpt>
<trkpt lat="35.919903" lon="139.497153">
<ele>21.2</ele>
<time>2026-04-03T01:52:21Z</time>
<speed>6.1</speed>
</trkpt>
<trkpt lat="35.920040" lon="139.497048">
<ele>21.2</ele>
<time>2026-04-03T01:52:22Z</time>
<speed>6.2</speed>
</trkpt>
<trkpt lat="35.920131" lon="139.496989">
<ele>21.4</ele>
<time>2026-04-03T01:52:24Z</time>
<speed>6.1</speed>
</trkpt>
<trkpt lat="35.920179" lon="139.496959">
<ele>21.4</ele>
<time>2026-04-03T01:52:25Z</time>
<speed>6.0</speed>
</trkpt>
<trkpt lat="35.920598" lon="139.496672">
<ele>21.4</ele>
<time>2026-04-03T01:52:34Z</time>
<speed>6.4</speed>
</trkpt>
<trkpt lat="35.920998" lon="139.496385">
<ele>21.4</ele>
<time>2026-04-03T01:52:42Z</time>
<speed>6.6</speed>
</trkpt>
<trkpt lat="35.921511" lon="139.496020">
<ele>21.8</ele>
<time>2026-04-03T01:52:52Z</time>
<speed>6.6</speed>
</trkpt>
<trkpt lat="35.921563" lon="139.495984">
<ele>21.8</ele>
<time>2026-04-03T01:52:53Z</time>
<speed>6.7</speed>
</trkpt>
<trkpt lat="35.922084" lon="139.495619">
<ele>22.2</ele>
<time>2026-04-03T01:53:03Z</time>
<speed>6.6</speed>
</trkpt>
<trkpt lat="35.922136" lon="139.495583">
<ele>22.2</ele>
<time>2026-04-03T01:53:04Z</time>
<speed>6.6</speed>
</trkpt>
<trkpt lat="35.922344" lon="139.495438">
<ele>22.4</ele>
<time>2026-04-03T01:53:08Z</time>
<speed>6.3</speed>
</trkpt>
<trkpt lat="35.922640" lon="139.495227">
<ele>22.4</ele>
<time>2026-04-03T01:53:14Z</time>
<speed>5.9</speed>
</trkpt>
<trkpt lat="35.923012" lon="139.494972">
<ele>22.2</ele>
<time>2026-04-03T01:53:22Z</time>
<speed>4.2</speed>
</trkpt>
<trkpt lat="35.923206" lon="139.494824">
<ele>22.2</ele>
<time>2026-04-03T01:53:28Z</time>
<speed>3.0</speed>
</trkpt>
<trkpt lat="35.923169" lon="139.494734">
<ele>22.0</ele>
<time>2026-04-03T01:53:31Z</time>
<speed>2.6</speed>
</trkpt>
<trkpt lat="35.923124" lon="139.494631">
<ele>22.2</ele>
<time>2026-04-03T01:53:35Z</time>
<speed>3.6</speed>
</trkpt>
<trkpt lat="35.923150" lon="139.494587">
<ele>22.2</ele>
<time>2026-04-03T01:53:36Z</time>
<speed>4.8</speed>
</trkpt>
<trkpt lat="35.923260" lon="139.494300">
<ele>22.6</ele>
<time>2026-04-03T01:53:42Z</time>
<speed>4.1</speed>
</trkpt>
<trkpt lat="35.923370" lon="139.494060">
<ele>23.2</ele>
<time>2026-04-03T01:53:48Z</time>
<speed>4.1</speed>
</trkpt>
<trkpt lat="35.923383" lon="139.494004">
<ele>23.4</ele>
<time>2026-04-03T01:53:49Z</time>
<speed>4.8</speed>
</trkpt>
<trkpt lat="35.923354" lon="139.493861">
<ele>24.0</ele>
<time>2026-04-03T01:53:52Z</time>
<speed>4.7</speed>
</trkpt>
<trkpt lat="35.923333" lon="139.493754">
<ele>24.4</ele>
<time>2026-04-03T01:53:54Z</time>
<speed>4.7</speed>
</trkpt>
<trkpt lat="35.923322" lon="139.493698">
<ele>24.4</ele>
<time>2026-04-03T01:53:55Z</time>
<speed>4.8</speed>
</trkpt>
<trkpt lat="35.923296" lon="139.493542">
<ele>25.0</ele>
<time>2026-04-03T01:53:58Z</time>
<speed>4.6</speed>
</trkpt>
<trkpt lat="35.923287" lon="139.493456">
<ele>25.2</ele>
<time>2026-04-03T01:53:59Z</time>
<speed>4.4</speed>
</trkpt>
<trkpt lat="35.923213" lon="139.493397">
<ele>25.4</ele>
<time>2026-04-03T01:54:02Z</time>
<speed>3.9</speed>
</trkpt>
<trkpt lat="35.923157" lon="139.493363">
<ele>25.4</ele>
<time>2026-04-03T01:54:03Z</time>
<speed>2.6</speed>
</trkpt>
<trkpt lat="35.923120" lon="139.493322">
<ele>25.4</ele>
<time>2026-04-03T01:54:07Z</time>
<speed>2.5</speed>
</trkpt>
<trkpt lat="35.923100" lon="139.493242">
<ele>25.2</ele>
<time>2026-04-03T01:54:09Z</time>
<speed>0.9</speed>
</trkpt>
<trkpt lat="35.923083" lon="139.493161">
<ele>25.0</ele>
<time>2026-04-03T01:54:11Z</time>
<speed>0.6</speed>
</trkpt>
<trkpt lat="35.923528" lon="139.492899">
<ele>26.2</ele>
<time>2026-04-03T01:55:49Z</time>
<speed>1.4</speed>
</trkpt>
<trkpt lat="35.923637" lon="139.492832">
<ele>26.4</ele>
<time>2026-04-03T01:55:52Z</time>
<speed>1.3</speed>
</trkpt>
<trkpt lat="35.923706" lon="139.492786">
<ele>26.6</ele>
<time>2026-04-03T01:56:00Z</time>
<speed>1.4</speed>
</trkpt>
<trkpt lat="35.923834" lon="139.492705">
<ele>27.0</ele>
<time>2026-04-03T01:56:07Z</time>
<speed>1.6</speed>
</trkpt>
<trkpt lat="35.923999" lon="139.492598">
<ele>27.2</ele>
<time>2026-04-03T01:56:14Z</time>
<speed>0.2</speed>
</trkpt>
<trkpt lat="35.924071" lon="139.492550">
<ele>28.6</ele>
<time>2026-04-03T01:59:14Z</time>
<speed>1.5</speed>
</trkpt>
<trkpt lat="35.923977" lon="139.492456">
<ele>28.6</ele>
<time>2026-04-03T01:59:15Z</time>
<speed>1.3</speed>
</trkpt>
<trkpt lat="35.923967" lon="139.492429">
<ele>28.6</ele>
<time>2026-04-03T01:59:17Z</time>
<speed>1.3</speed>
</trkpt>
<trkpt lat="35.923961" lon="139.492401">
<ele>28.6</ele>
<time>2026-04-03T01:59:19Z</time>
<speed>1.3</speed>
</trkpt>
<trkpt lat="35.923978" lon="139.492347">
<ele>28.8</ele>
<time>2026-04-03T01:59:23Z</time>
<speed>1.5</speed>
</trkpt>
<trkpt lat="35.923980" lon="139.492331">
<ele>28.8</ele>
<time>2026-04-03T01:59:24Z</time>
<speed>1.2</speed>
</trkpt>
<trkpt lat="35.923985" lon="139.492227">
<ele>28.8</ele>
<time>2026-04-03T01:59:32Z</time>
<speed>0.1</speed>
</trkpt>
<trkpt lat="35.924103" lon="139.492243">
<ele>29.0</ele>
<time>2026-04-03T02:01:12Z</time>
<speed>2.6</speed>
</trkpt>
<trkpt lat="35.924215" lon="139.492194">
<ele>29.0</ele>
<time>2026-04-03T02:01:17Z</time>
<speed>3.0</speed>
</trkpt>
<trkpt lat="35.924322" lon="139.492047">
<ele>29.0</ele>
<time>2026-04-03T02:01:23Z</time>
<speed>3.0</speed>
</trkpt>
<trkpt lat="35.924356" lon="139.491887">
<ele>29.0</ele>
<time>2026-04-03T02:01:28Z</time>
<speed>0.7</speed>
</trkpt>
<trkpt lat="35.924375" lon="139.491864">
<ele>29.2</ele>
<time>2026-04-03T02:01:32Z</time>
<speed>0.2</speed>
</trkpt>
<trkpt lat="35.924377" lon="139.491864">
<ele>29.2</ele>
<time>2026-04-03T02:01:33Z</time>
<speed>1.5</speed>
</trkpt>
<trkpt lat="35.924347" lon="139.491818">
<ele>29.4</ele>
<time>2026-04-03T02:01:37Z</time>
<speed>1.4</speed>
</trkpt>
<trkpt lat="35.924353" lon="139.491794">
<ele>29.4</ele>
<time>2026-04-03T02:01:39Z</time>
<speed>1.3</speed>
</trkpt>
<trkpt lat="35.924393" lon="139.491791">
<ele>29.4</ele>
<time>2026-04-03T02:01:44Z</time>
<speed>0.1</speed>
</trkpt>
<trkpt lat="35.924425" lon="139.491772">
<ele>29.6</ele>
<time>2026-04-03T02:03:20Z</time>
<speed>2.4</speed>
</trkpt>
<trkpt lat="35.924462" lon="139.491764">
<ele>29.6</ele>
<time>2026-04-03T02:03:22Z</time>
<speed>2.0</speed>
</trkpt>
<trkpt lat="35.924532" lon="139.491743">
<ele>29.6</ele>
<time>2026-04-03T02:03:25Z</time>
<speed>2.4</speed>
</trkpt>
<trkpt lat="35.924636" lon="139.491700">
<ele>29.6</ele>
<time>2026-04-03T02:03:28Z</time>
<speed>3.3</speed>
</trkpt>
<trkpt lat="35.924816" lon="139.491627">
<ele>29.6</ele>
<time>2026-04-03T02:03:35Z</time>
<speed>4.0</speed>
</trkpt>
<trkpt lat="35.925033" lon="139.491566">
<ele>29.6</ele>
<time>2026-04-03T02:03:41Z</time>
<speed>4.5</speed>
</trkpt>
<trkpt lat="35.925287" lon="139.491493">
<ele>29.6</ele>
<time>2026-04-03T02:03:47Z</time>
<speed>4.6</speed>
</trkpt>
<trkpt lat="35.925437" lon="139.491431">
<ele>29.4</ele>
<time>2026-04-03T02:03:48Z</time>
<speed>3.0</speed>
</trkpt>
<trkpt lat="35.925433" lon="139.491539">
<ele>29.4</ele>
<time>2026-04-03T02:03:52Z</time>
<speed>2.7</speed>
</trkpt>
<trkpt lat="35.925492" lon="139.491815">
<ele>29.0</ele>
<time>2026-04-03T02:03:57Z</time>
<speed>4.1</speed>
</trkpt>
<trkpt lat="35.925585" lon="139.492182">
<ele>28.6</ele>
<time>2026-04-03T02:04:01Z</time>
<speed>5.3</speed>
</trkpt>
<trkpt lat="35.925731" lon="139.492523">
<ele>28.2</ele>
<time>2026-04-03T02:04:09Z</time>
<speed>3.7</speed>
</trkpt>
<trkpt lat="35.925828" lon="139.492507">
<ele>28.2</ele>
<time>2026-04-03T02:04:13Z</time>
<speed>3.6</speed>
</trkpt>
<trkpt lat="35.925911" lon="139.492464">
<ele>27.8</ele>
<time>2026-04-03T02:04:17Z</time>
<speed>4.3</speed>
</trkpt>
<trkpt lat="35.926085" lon="139.492384">
<ele>27.4</ele>
<time>2026-04-03T02:04:18Z</time>
<speed>5.0</speed>
</trkpt>
<trkpt lat="35.926287" lon="139.492295">
<ele>26.8</ele>
<time>2026-04-03T02:04:23Z</time>
<speed>4.5</speed>
</trkpt>
<trkpt lat="35.926426" lon="139.492287">
<ele>26.4</ele>
<time>2026-04-03T02:04:29Z</time>
<speed>3.6</speed>
</trkpt>
<trkpt lat="35.926497" lon="139.492228">
<ele>26.2</ele>
<time>2026-04-03T02:04:32Z</time>
<speed>4.5</speed>
</trkpt>
<trkpt lat="35.926610" lon="139.492115">
<ele>26.2</ele>
<time>2026-04-03T02:04:34Z</time>
<speed>5.1</speed>
</trkpt>
<trkpt lat="35.926697" lon="139.492022">
<ele>26.2</ele>
<time>2026-04-03T02:04:38Z</time>
<speed>5.1</speed>
</trkpt>
<trkpt lat="35.926751" lon="139.491930">
<ele>25.8</ele>
<time>2026-04-03T02:04:40Z</time>
<speed>5.2</speed>
</trkpt>
<trkpt lat="35.926799" lon="139.491850">
<ele>25.4</ele>
<time>2026-04-03T02:04:41Z</time>
<speed>5.1</speed>
</trkpt>
<trkpt lat="35.926866" lon="139.491729">
<ele>25.2</ele>
<time>2026-04-03T02:04:42Z</time>
<speed>5.2</speed>
</trkpt>
<trkpt lat="35.926932" lon="139.491582">
<ele>24.8</ele>
<time>2026-04-03T02:04:46Z</time>
<speed>5.0</speed>
</trkpt>
<trkpt lat="35.926966" lon="139.491474">
<ele>24.8</ele>
<time>2026-04-03T02:04:48Z</time>
<speed>5.0</speed>
</trkpt>
<trkpt lat="35.927025" lon="139.491268">
<ele>24.8</ele>
<time>2026-04-03T02:04:52Z</time>
<speed>5.0</speed>
</trkpt>
<trkpt lat="35.927123" lon="139.490946">
<ele>24.8</ele>
<time>2026-04-03T02:04:59Z</time>
<speed>4.8</speed>
</trkpt>
<trkpt lat="35.927242" lon="139.490552">
<ele>25.0</ele>
<time>2026-04-03T02:05:07Z</time>
<speed>4.2</speed>
</trkpt>
<trkpt lat="35.927264" lon="139.490466">
<ele>25.2</ele>
<time>2026-04-03T02:05:11Z</time>
<speed>3.3</speed>
</trkpt>
<trkpt lat="35.927218" lon="139.490176">
<ele>25.2</ele>
<time>2026-04-03T02:05:16Z</time>
<speed>2.8</speed>
</trkpt>
<trkpt lat="35.927260" lon="139.490149">
<ele>25.2</ele>
<time>2026-04-03T02:05:17Z</time>
<speed>3.1</speed>
</trkpt>
<trkpt lat="35.927318" lon="139.490117">
<ele>25.2</ele>
<time>2026-04-03T02:05:19Z</time>
<speed>1.9</speed>
</trkpt>
<trkpt lat="35.927379" lon="139.490066">
<ele>25.6</ele>
<time>2026-04-03T02:05:24Z</time>
<speed>0.5</speed>
</trkpt>
<trkpt lat="35.927426" lon="139.490029">
<ele>26.0</ele>
<time>2026-04-03T02:05:37Z</time>
<speed>3.5</speed>
</trkpt>
<trkpt lat="35.927466" lon="139.489948">
<ele>26.0</ele>
<time>2026-04-03T02:05:39Z</time>
<speed>2.1</speed>
</trkpt>
<trkpt lat="35.927512" lon="139.489846">
<ele>26.0</ele>
<time>2026-04-03T02:05:44Z</time>
<speed>0.1</speed>
</trkpt>
<trkpt lat="35.927544" lon="139.489774">
<ele>25.2</ele>
<time>2026-04-03T02:06:56Z</time>
<speed>2.7</speed>
</trkpt>
<trkpt lat="35.927596" lon="139.489667">
<ele>25.2</ele>
<time>2026-04-03T02:06:58Z</time>
<speed>3.9</speed>
</trkpt>
<trkpt lat="35.927659" lon="139.489524">
<ele>25.2</ele>
<time>2026-04-03T02:07:03Z</time>
<speed>4.0</speed>
</trkpt>
<trkpt lat="35.927759" lon="139.489291">
<ele>25.4</ele>
<time>2026-04-03T02:07:10Z</time>
<speed>4.4</speed>
</trkpt>
<trkpt lat="35.927848" lon="139.489063">
<ele>25.6</ele>
<time>2026-04-03T02:07:16Z</time>
<speed>3.1</speed>
</trkpt>
<trkpt lat="35.927926" lon="139.488859">
<ele>25.8</ele>
<time>2026-04-03T02:07:21Z</time>
<speed>2.9</speed>
</trkpt>
<trkpt lat="35.927981" lon="139.488661">
<ele>25.8</ele>
<time>2026-04-03T02:07:26Z</time>
<speed>2.4</speed>
</trkpt>
<trkpt lat="35.928013" lon="139.488610">
<ele>25.8</ele>
<time>2026-04-03T02:07:27Z</time>
<speed>2.5</speed>
</trkpt>
<trkpt lat="35.928031" lon="139.488553">
<ele>25.8</ele>
<time>2026-04-03T02:07:30Z</time>
<speed>2.8</speed>
</trkpt>
<trkpt lat="35.928074" lon="139.488441">
<ele>26.0</ele>
<time>2026-04-03T02:07:32Z</time>
<speed>3.1</speed>
</trkpt>
<trkpt lat="35.928124" lon="139.488323">
<ele>26.0</ele>
<time>2026-04-03T02:07:40Z</time>
<speed>3.8</speed>
</trkpt>
<trkpt lat="35.928207" lon="139.488138">
<ele>26.0</ele>
<time>2026-04-03T02:07:45Z</time>
<speed>3.9</speed>
</trkpt>
<trkpt lat="35.928261" lon="139.488020">
<ele>26.0</ele>
<time>2026-04-03T02:07:48Z</time>
<speed>4.1</speed>
</trkpt>
<trkpt lat="35.928337" lon="139.487861">
<ele>26.0</ele>
<time>2026-04-03T02:07:51Z</time>
<speed>4.0</speed>
</trkpt>
<trkpt lat="35.928413" lon="139.487674">
<ele>26.0</ele>
<time>2026-04-03T02:07:56Z</time>
<speed>3.7</speed>
</trkpt>
<trkpt lat="35.928454" lon="139.487564">
<ele>26.0</ele>
<time>2026-04-03T02:08:03Z</time>
<speed>1.3</speed>
</trkpt>
<trkpt lat="35.928511" lon="139.487454">
<ele>25.8</ele>
<time>2026-04-03T02:08:07Z</time>
<speed>0.4</speed>
</trkpt>
<trkpt lat="35.928535" lon="139.487411">
<ele>25.6</ele>
<time>2026-04-03T02:08:11Z</time>
<speed>0.1</speed>
</trkpt>
<trkpt lat="35.928550" lon="139.487384">
<ele>25.6</ele>
<time>2026-04-03T02:09:07Z</time>
<speed>2.6</speed>
</trkpt>
<trkpt lat="35.928582" lon="139.487325">
<ele>25.6</ele>
<time>2026-04-03T02:09:08Z</time>
<speed>2.8</speed>
</trkpt>
<trkpt lat="35.928656" lon="139.487210">
<ele>25.6</ele>
<time>2026-04-03T02:09:09Z</time>
<speed>4.3</speed>
</trkpt>
<trkpt lat="35.928758" lon="139.487051">
<ele>25.8</ele>
<time>2026-04-03T02:09:15Z</time>
<speed>3.6</speed>
</trkpt>
<trkpt lat="35.928882" lon="139.486912">
<ele>25.8</ele>
<time>2026-04-03T02:09:21Z</time>
<speed>3.5</speed>
</trkpt>
<trkpt lat="35.928986" lon="139.486813">
<ele>25.8</ele>
<time>2026-04-03T02:09:23Z</time>
<speed>3.9</speed>
</trkpt>
<trkpt lat="35.929095" lon="139.486716">
<ele>25.8</ele>
<time>2026-04-03T02:09:27Z</time>
<speed>3.5</speed>
</trkpt>
<trkpt lat="35.929197" lon="139.486628">
<ele>25.8</ele>
<time>2026-04-03T02:09:30Z</time>
<speed>3.2</speed>
</trkpt>
<trkpt lat="35.929321" lon="139.486526">
<ele>25.8</ele>
<time>2026-04-03T02:09:37Z</time>
<speed>3.7</speed>
</trkpt>
<trkpt lat="35.929473" lon="139.486407">
<ele>25.8</ele>
<time>2026-04-03T02:09:43Z</time>
<speed>4.2</speed>
</trkpt>
<trkpt lat="35.929729" lon="139.486142">
<ele>25.8</ele>
<time>2026-04-03T02:09:51Z</time>
<speed>4.0</speed>
</trkpt>
<trkpt lat="35.929862" lon="139.485978">
<ele>25.8</ele>
<time>2026-04-03T02:09:57Z</time>
<speed>3.4</speed>
</trkpt>
<trkpt lat="35.929990" lon="139.485756">
<ele>26.0</ele>
<time>2026-04-03T02:10:04Z</time>
<speed>3.4</speed>
</trkpt>
<trkpt lat="35.930096" lon="139.485504">
<ele>26.2</ele>
<time>2026-04-03T02:10:14Z</time>
<speed>1.3</speed>
</trkpt>
<trkpt lat="35.930226" lon="139.485260">
<ele>26.2</ele>
<time>2026-04-03T02:10:18Z</time>
<speed>0.2</speed>
</trkpt>
<trkpt lat="35.930355" lon="139.485351">
<ele>26.4</ele>
<time>2026-04-03T02:12:33Z</time>
<speed>2.4</speed>
</trkpt>
<trkpt lat="35.930389" lon="139.485270">
<ele>26.4</ele>
<time>2026-04-03T02:12:34Z</time>
<speed>2.9</speed>
</trkpt>
<trkpt lat="35.930426" lon="139.485069">
<ele>26.4</ele>
<time>2026-04-03T02:12:40Z</time>
<speed>3.0</speed>
</trkpt>
<trkpt lat="35.930400" lon="139.484981">
<ele>26.4</ele>
<time>2026-04-03T02:12:44Z</time>
<speed>3.9</speed>
</trkpt>
<trkpt lat="35.930352" lon="139.484830">
<ele>26.4</ele>
<time>2026-04-03T02:12:46Z</time>
<speed>4.2</speed>
</trkpt>
<trkpt lat="35.930289" lon="139.484664">
<ele>26.4</ele>
<time>2026-04-03T02:12:51Z</time>
<speed>3.8</speed>
</trkpt>
<trkpt lat="35.930246" lon="139.484568">
<ele>26.4</ele>
<time>2026-04-03T02:12:53Z</time>
<speed>3.9</speed>
</trkpt>
<trkpt lat="35.930179" lon="139.484372">
<ele>26.6</ele>
<time>2026-04-03T02:13:02Z</time>
<speed>2.4</speed>
</trkpt>
<trkpt lat="35.930098" lon="139.484163">
<ele>26.6</ele>
<time>2026-04-03T02:13:06Z</time>
<speed>1.9</speed>
</trkpt>
<trkpt lat="35.930079" lon="139.484093">
<ele>26.8</ele>
<time>2026-04-03T02:13:11Z</time>
<speed>2.1</speed>
</trkpt>
<trkpt lat="35.930027" lon="139.484074">
<ele>26.8</ele>
<time>2026-04-03T02:13:15Z</time>
<speed>1.3</speed>
</trkpt>
<trkpt lat="35.929972" lon="139.484023">
<ele>26.8</ele>
<time>2026-04-03T02:13:16Z</time>
<speed>2.3</speed>
</trkpt>
<trkpt lat="35.929890" lon="139.484114">
<ele>27.2</ele>
<time>2026-04-03T02:13:20Z</time>
<speed>4.1</speed>
</trkpt>
<trkpt lat="35.929842" lon="139.484096">
<ele>27.2</ele>
<time>2026-04-03T02:13:22Z</time>
<speed>4.2</speed>
</trkpt>
<trkpt lat="35.929792" lon="139.484063">
<ele>27.2</ele>
<time>2026-04-03T02:13:26Z</time>
<speed>3.3</speed>
</trkpt>
<trkpt lat="35.929438" lon="139.483978">
<ele>27.2</ele>
<time>2026-04-03T02:13:32Z</time>
<speed>3.5</speed>
</trkpt>
<trkpt lat="35.929369" lon="139.483932">
<ele>27.2</ele>
<time>2026-04-03T02:13:35Z</time>
<speed>4.3</speed>
</trkpt>
<trkpt lat="35.929299" lon="139.483747">
<ele>27.2</ele>
<time>2026-04-03T02:13:36Z</time>
<speed>4.5</speed>
</trkpt>
<trkpt lat="35.929214" lon="139.483556">
<ele>27.0</ele>
<time>2026-04-03T02:13:42Z</time>
<speed>4.7</speed>
</trkpt>
<trkpt lat="35.929136" lon="139.483369">
<ele>27.0</ele>
<time>2026-04-03T02:13:44Z</time>
<speed>4.9</speed>
</trkpt>
<trkpt lat="35.929056" lon="139.483261">
<ele>27.0</ele>
<time>2026-04-03T02:13:48Z</time>
<speed>4.2</speed>
</trkpt>
<trkpt lat="35.928956" lon="139.483157">
<ele>27.2</ele>
<time>2026-04-03T02:13:52Z</time>
<speed>3.8</speed>
</trkpt>
<trkpt lat="35.928876" lon="139.483076">
<ele>27.2</ele>
<time>2026-04-03T02:13:54Z</time>
<speed>3.8</speed>
</trkpt>
<trkpt lat="35.928793" lon="139.483001">
<ele>27.4</ele>
<time>2026-04-03T02:13:56Z</time>
<speed>3.0</speed>
</trkpt>
<trkpt lat="35.928726" lon="139.482929">
<ele>27.6</ele>
<time>2026-04-03T02:14:01Z</time>
<speed>2.2</speed>
</trkpt>
<trkpt lat="35.928767" lon="139.482891">
<ele>27.6</ele>
<time>2026-04-03T02:14:02Z</time>
<speed>2.4</speed>
</trkpt>
<trkpt lat="35.928791" lon="139.482864">
<ele>27.8</ele>
<time>2026-04-03T02:14:04Z</time>
<speed>2.8</speed>
</trkpt>
<trkpt lat="35.928821" lon="139.482835">
<ele>27.8</ele>
<time>2026-04-03T02:14:06Z</time>
<speed>1.6</speed>
</trkpt>
<trkpt lat="35.928832" lon="139.482824">
<ele>27.8</ele>
<time>2026-04-03T02:14:08Z</time>
<speed>0.8</speed>
</trkpt>
<trkpt lat="35.928843" lon="139.482803">
<ele>27.8</ele>
<time>2026-04-03T02:14:09Z</time>
<speed>0.3</speed>
</trkpt>
<trkpt lat="35.928854" lon="139.482771">
<ele>28.0</ele>
<time>2026-04-03T02:14:27Z</time>
<speed>2.9</speed>
</trkpt>
<trkpt lat="35.928845" lon="139.482738">
<ele>28.0</ele>
<time>2026-04-03T02:14:28Z</time>
<speed>3.9</speed>
</trkpt>
<trkpt lat="35.928771" lon="139.482706">
<ele>28.2</ele>
<time>2026-04-03T02:14:30Z</time>
<speed>4.8</speed>
</trkpt>
<trkpt lat="35.928589" lon="139.482585">
<ele>28.2</ele>
<time>2026-04-03T02:14:32Z</time>
<speed>4.6</speed>
</trkpt>
<trkpt lat="35.928476" lon="139.482470">
<ele>28.2</ele>
<time>2026-04-03T02:14:39Z</time>
<speed>5.1</speed>
</trkpt>
<trkpt lat="35.928428" lon="139.482376">
<ele>28.2</ele>
<time>2026-04-03T02:14:40Z</time>
<speed>4.8</speed>
</trkpt>
<trkpt lat="35.928404" lon="139.482194">
<ele>28.2</ele>
<time>2026-04-03T02:14:43Z</time>
<speed>5.2</speed>
</trkpt>
<trkpt lat="35.928393" lon="139.481966">
<ele>28.2</ele>
<time>2026-04-03T02:14:44Z</time>
<speed>5.1</speed>
</trkpt>
<trkpt lat="35.928378" lon="139.481834">
<ele>28.0</ele>
<time>2026-04-03T02:14:48Z</time>
<speed>4.7</speed>
</trkpt>
<trkpt lat="35.928365" lon="139.481765">
<ele>27.8</ele>
<time>2026-04-03T02:14:51Z</time>
<speed>4.8</speed>
</trkpt>
<trkpt lat="35.928322" lon="139.481655">
<ele>27.8</ele>
<time>2026-04-03T02:14:52Z</time>
<speed>4.8</speed>
</trkpt>
<trkpt lat="35.928274" lon="139.481556">
<ele>27.8</ele>
<time>2026-04-03T02:14:56Z</time>
<speed>5.2</speed>
</trkpt>
<trkpt lat="35.928187" lon="139.481403">
<ele>27.8</ele>
<time>2026-04-03T02:14:57Z</time>
<speed>5.1</speed>
</trkpt>
<trkpt lat="35.928063" lon="139.481212">
<ele>27.8</ele>
<time>2026-04-03T02:15:05Z</time>
<speed>5.2</speed>
</trkpt>
<trkpt lat="35.927885" lon="139.480947">
<ele>27.8</ele>
<time>2026-04-03T02:15:10Z</time>
<speed>4.8</speed>
</trkpt>
<trkpt lat="35.927737" lon="139.480729">
<ele>28.0</ele>
<time>2026-04-03T02:15:13Z</time>
<speed>4.9</speed>
</trkpt>
<trkpt lat="35.927538" lon="139.480493">
<ele>28.2</ele>
<time>2026-04-03T02:15:22Z</time>
<speed>4.6</speed>
</trkpt>
<trkpt lat="35.927403" lon="139.480416">
<ele>28.4</ele>
<time>2026-04-03T02:15:25Z</time>
<speed>3.3</speed>
</trkpt>
<trkpt lat="35.927294" lon="139.480389">
<ele>28.6</ele>
<time>2026-04-03T02:15:28Z</time>
<speed>4.0</speed>
</trkpt>
<trkpt lat="35.927125" lon="139.480410">
<ele>28.6</ele>
<time>2026-04-03T02:15:33Z</time>
<speed>4.7</speed>
</trkpt>
<trkpt lat="35.926899" lon="139.480467">
<ele>28.8</ele>
<time>2026-04-03T02:15:38Z</time>
<speed>4.9</speed>
</trkpt>
<trkpt lat="35.926783" lon="139.480493">
<ele>28.8</ele>
<time>2026-04-03T02:15:41Z</time>
<speed>5.0</speed>
</trkpt>
<trkpt lat="35.926647" lon="139.480483">
<ele>29.0</ele>
<time>2026-04-03T02:15:44Z</time>
<speed>5.2</speed>
</trkpt>
<trkpt lat="35.926549" lon="139.480475">
<ele>29.0</ele>
<time>2026-04-03T02:15:47Z</time>
<speed>5.1</speed>
</trkpt>
<trkpt lat="35.926471" lon="139.480458">
<ele>29.0</ele>
<time>2026-04-03T02:15:48Z</time>
<speed>4.7</speed>
</trkpt>
<trkpt lat="35.926400" lon="139.480442">
<ele>29.2</ele>
<time>2026-04-03T02:15:49Z</time>
<speed>4.8</speed>
</trkpt>
<trkpt lat="35.926165" lon="139.480378">
<ele>29.2</ele>
<time>2026-04-03T02:15:54Z</time>
<speed>4.7</speed>
</trkpt>
<trkpt lat="35.926076" lon="139.480349">
<ele>29.2</ele>
<time>2026-04-03T02:15:58Z</time>
<speed>4.7</speed>
</trkpt>
<trkpt lat="35.925965" lon="139.480314">
<ele>29.2</ele>
<time>2026-04-03T02:15:59Z</time>
<speed>4.4</speed>
</trkpt>
<trkpt lat="35.925804" lon="139.480281">
<ele>29.2</ele>
<time>2026-04-03T02:16:01Z</time>
<speed>3.1</speed>
</trkpt>
<trkpt lat="35.925726" lon="139.480257">
<ele>29.0</ele>
<time>2026-04-03T02:16:08Z</time>
<speed>0.1</speed>
</trkpt>
<trkpt lat="35.925663" lon="139.480239">
<ele>28.6</ele>
<time>2026-04-03T02:17:17Z</time>
<speed>3.3</speed>
</trkpt>
<trkpt lat="35.925559" lon="139.480222">
<ele>28.6</ele>
<time>2026-04-03T02:17:18Z</time>
<speed>3.7</speed>
</trkpt>
<trkpt lat="35.925439" lon="139.480193">
<ele>29.0</ele>
<time>2026-04-03T02:17:23Z</time>
<speed>4.0</speed>
</trkpt>
<trkpt lat="35.925391" lon="139.480168">
<ele>29.2</ele>
<time>2026-04-03T02:17:26Z</time>
<speed>3.3</speed>
</trkpt>
<trkpt lat="35.925364" lon="139.480153">
<ele>29.2</ele>
<time>2026-04-03T02:17:27Z</time>
<speed>3.6</speed>
</trkpt>
<trkpt lat="35.925333" lon="139.480141">
<ele>29.4</ele>
<time>2026-04-03T02:17:28Z</time>
<speed>3.9</speed>
</trkpt>
<trkpt lat="35.925301" lon="139.480123">
<ele>29.4</ele>
<time>2026-04-03T02:17:29Z</time>
<speed>3.5</speed>
</trkpt>
<trkpt lat="35.925224" lon="139.480091">
<ele>29.8</ele>
<time>2026-04-03T02:17:31Z</time>
<speed>4.5</speed>
</trkpt>
<trkpt lat="35.925122" lon="139.480029">
<ele>30.2</ele>
<time>2026-04-03T02:17:33Z</time>
<speed>5.3</speed>
</trkpt>
<trkpt lat="35.925033" lon="139.479968">
<ele>30.6</ele>
<time>2026-04-03T02:17:35Z</time>
<speed>5.1</speed>
</trkpt>
<trkpt lat="35.924955" lon="139.479874">
<ele>30.8</ele>
<time>2026-04-03T02:17:37Z</time>
<speed>4.7</speed>
</trkpt>
<trkpt lat="35.924825" lon="139.479667">
<ele>30.8</ele>
<time>2026-04-03T02:17:41Z</time>
<speed>4.6</speed>
</trkpt>
<trkpt lat="35.924725" lon="139.479431">
<ele>30.6</ele>
<time>2026-04-03T02:17:47Z</time>
<speed>3.7</speed>
</trkpt>
<trkpt lat="35.924692" lon="139.479337">
<ele>30.2</ele>
<time>2026-04-03T02:17:52Z</time>
<speed>3.0</speed>
</trkpt>
<trkpt lat="35.924678" lon="139.479288">
<ele>30.2</ele>
<time>2026-04-03T02:17:53Z</time>
<speed>3.8</speed>
</trkpt>
<trkpt lat="35.924582" lon="139.479316">
<ele>30.2</ele>
<time>2026-04-03T02:17:56Z</time>
<speed>4.1</speed>
</trkpt>
<trkpt lat="35.924490" lon="139.479343">
<ele>30.2</ele>
<time>2026-04-03T02:17:57Z</time>
<speed>2.9</speed>
</trkpt>
<trkpt lat="35.924406" lon="139.479378">
<ele>30.2</ele>
<time>2026-04-03T02:18:03Z</time>
<speed>2.8</speed>
</trkpt>
<trkpt lat="35.924247" lon="139.479434">
<ele>30.2</ele>
<time>2026-04-03T02:18:09Z</time>
<speed>3.6</speed>
</trkpt>
<trkpt lat="35.924065" lon="139.479501">
<ele>30.4</ele>
<time>2026-04-03T02:18:15Z</time>
<speed>4.2</speed>
</trkpt>
<trkpt lat="35.923777" lon="139.479608">
<ele>30.8</ele>
<time>2026-04-03T02:18:23Z</time>
<speed>5.0</speed>
</trkpt>
<trkpt lat="35.923692" lon="139.479642">
<ele>31.2</ele>
<time>2026-04-03T02:18:25Z</time>
<speed>6.1</speed>
</trkpt>
<trkpt lat="35.923533" lon="139.479696">
<ele>31.4</ele>
<time>2026-04-03T02:18:28Z</time>
<speed>5.6</speed>
</trkpt>
<trkpt lat="35.923484" lon="139.479710">
<ele>31.4</ele>
<time>2026-04-03T02:18:29Z</time>
<speed>6.6</speed>
</trkpt>
<trkpt lat="35.923370" lon="139.479752">
<ele>31.6</ele>
<time>2026-04-03T02:18:31Z</time>
<speed>6.7</speed>
</trkpt>
<trkpt lat="35.923253" lon="139.479788">
<ele>32.0</ele>
<time>2026-04-03T02:18:33Z</time>
<speed>6.5</speed>
</trkpt>
<trkpt lat="35.923023" lon="139.479850">
<ele>32.6</ele>
<time>2026-04-03T02:18:37Z</time>
<speed>5.4</speed>
</trkpt>
<trkpt lat="35.922974" lon="139.479850">
<ele>32.6</ele>
<time>2026-04-03T02:18:38Z</time>
<speed>4.8</speed>
</trkpt>
<trkpt lat="35.922931" lon="139.479848">
<ele>32.8</ele>
<time>2026-04-03T02:18:39Z</time>
<speed>5.0</speed>
</trkpt>
<trkpt lat="35.922751" lon="139.479834">
<ele>33.4</ele>
<time>2026-04-03T02:18:43Z</time>
<speed>5.1</speed>
</trkpt>
<trkpt lat="35.922384" lon="139.479803">
<ele>33.8</ele>
<time>2026-04-03T02:18:51Z</time>
<speed>5.1</speed>
</trkpt>
<trkpt lat="35.922338" lon="139.479802">
<ele>33.8</ele>
<time>2026-04-03T02:18:52Z</time>
<speed>5.4</speed>
</trkpt>
<trkpt lat="35.922001" lon="139.479769">
<ele>34.2</ele>
<time>2026-04-03T02:18:59Z</time>
<speed>4.6</speed>
</trkpt>
<trkpt lat="35.921730" lon="139.479699">
<ele>34.8</ele>
<time>2026-04-03T02:19:06Z</time>
<speed>3.9</speed>
</trkpt>
<trkpt lat="35.921682" lon="139.479686">
<ele>34.8</ele>
<time>2026-04-03T02:19:07Z</time>
<speed>3.0</speed>
</trkpt>
<trkpt lat="35.921595" lon="139.479686">
<ele>35.0</ele>
<time>2026-04-03T02:19:12Z</time>
<speed>0.7</speed>
</trkpt>
<trkpt lat="35.921493" lon="139.479681">
<ele>35.0</ele>
<time>2026-04-03T02:19:22Z</time>
<speed>3.6</speed>
</trkpt>
<trkpt lat="35.921327" lon="139.479678">
<ele>35.2</ele>
<time>2026-04-03T02:19:27Z</time>
<speed>4.3</speed>
</trkpt>
<trkpt lat="35.921128" lon="139.479673">
<ele>35.2</ele>
<time>2026-04-03T02:19:32Z</time>
<speed>4.4</speed>
</trkpt>
<trkpt lat="35.920853" lon="139.479668">
<ele>35.2</ele>
<time>2026-04-03T02:19:39Z</time>
<speed>5.6</speed>
</trkpt>
<trkpt lat="35.920454" lon="139.479630">
<ele>35.0</ele>
<time>2026-04-03T02:19:47Z</time>
<speed>5.2</speed>
</trkpt>
<trkpt lat="35.920094" lon="139.479525">
<ele>35.0</ele>
<time>2026-04-03T02:19:55Z</time>
<speed>5.2</speed>
</trkpt>
<trkpt lat="35.919905" lon="139.479482">
<ele>34.8</ele>
<time>2026-04-03T02:19:59Z</time>
<speed>4.8</speed>
</trkpt>
<trkpt lat="35.919773" lon="139.479464">
<ele>34.8</ele>
<time>2026-04-03T02:20:02Z</time>
<speed>4.5</speed>
</trkpt>
<trkpt lat="35.919490" lon="139.479414">
<ele>34.8</ele>
<time>2026-04-03T02:20:09Z</time>
<speed>4.7</speed>
</trkpt>
<trkpt lat="35.919199" lon="139.479364">
<ele>34.8</ele>
<time>2026-04-03T02:20:16Z</time>
<speed>4.8</speed>
</trkpt>
<trkpt lat="35.918899" lon="139.479294">
<ele>35.2</ele>
<time>2026-04-03T02:20:23Z</time>
<speed>4.6</speed>
</trkpt>
<trkpt lat="35.918697" lon="139.479257">
<ele>35.2</ele>
<time>2026-04-03T02:20:28Z</time>
<speed>3.1</speed>
</trkpt>
<trkpt lat="35.918534" lon="139.479219">
<ele>35.2</ele>
<time>2026-04-03T02:20:34Z</time>
<speed>0.1</speed>
</trkpt>
<trkpt lat="35.918448" lon="139.479203">
<ele>34.4</ele>
<time>2026-04-03T02:21:34Z</time>
<speed>2.4</speed>
</trkpt>
<trkpt lat="35.918352" lon="139.479179">
<ele>34.4</ele>
<time>2026-04-03T02:21:35Z</time>
<speed>4.0</speed>
</trkpt>
<trkpt lat="35.918239" lon="139.479166">
<ele>34.6</ele>
<time>2026-04-03T02:21:40Z</time>
<speed>4.4</speed>
</trkpt>
<trkpt lat="35.918174" lon="139.479125">
<ele>34.6</ele>
<time>2026-04-03T02:21:41Z</time>
<speed>4.0</speed>
</trkpt>
<trkpt lat="35.918130" lon="139.479107">
<ele>34.6</ele>
<time>2026-04-03T02:21:42Z</time>
<speed>5.4</speed>
</trkpt>
<trkpt lat="35.918085" lon="139.479085">
<ele>34.6</ele>
<time>2026-04-03T02:21:43Z</time>
<speed>4.1</speed>
</trkpt>
<trkpt lat="35.918037" lon="139.479066">
<ele>34.8</ele>
<time>2026-04-03T02:21:44Z</time>
<speed>4.4</speed>
</trkpt>
<trkpt lat="35.917994" lon="139.479037">
<ele>34.8</ele>
<time>2026-04-03T02:21:45Z</time>
<speed>4.8</speed>
</trkpt>
<trkpt lat="35.917946" lon="139.479018">
<ele>34.8</ele>
<time>2026-04-03T02:21:46Z</time>
<speed>4.9</speed>
</trkpt>
<trkpt lat="35.917863" lon="139.478967">
<ele>35.0</ele>
<time>2026-04-03T02:21:48Z</time>
<speed>4.8</speed>
</trkpt>
<trkpt lat="35.917742" lon="139.478871">
<ele>35.2</ele>
<time>2026-04-03T02:21:51Z</time>
<speed>4.9</speed>
</trkpt>
<trkpt lat="35.917635" lon="139.478763">
<ele>35.2</ele>
<time>2026-04-03T02:21:52Z</time>
<speed>5.0</speed>
</trkpt>
<trkpt lat="35.917463" lon="139.478578">
<ele>35.2</ele>
<time>2026-04-03T02:22:01Z</time>
<speed>4.9</speed>
</trkpt>
<trkpt lat="35.917364" lon="139.478428">
<ele>35.2</ele>
<time>2026-04-03T02:22:06Z</time>
<speed>4.6</speed>
</trkpt>
<trkpt lat="35.917253" lon="139.478238">
<ele>35.2</ele>
<time>2026-04-03T02:22:07Z</time>
<speed>4.7</speed>
</trkpt>
<trkpt lat="35.917109" lon="139.477983">
<ele>35.4</ele>
<time>2026-04-03T02:22:15Z</time>
<speed>3.9</speed>
</trkpt>
<trkpt lat="35.917003" lon="139.477787">
<ele>35.6</ele>
<time>2026-04-03T02:22:20Z</time>
<speed>3.9</speed>
</trkpt>
<trkpt lat="35.916951" lon="139.477661">
<ele>35.8</ele>
<time>2026-04-03T02:22:25Z</time>
<speed>4.7</speed>
</trkpt>
<trkpt lat="35.916913" lon="139.477581">
<ele>35.8</ele>
<time>2026-04-03T02:22:26Z</time>
<speed>1.3</speed>
</trkpt>
<trkpt lat="35.916882" lon="139.477535">
<ele>36.0</ele>
<time>2026-04-03T02:22:30Z</time>
<speed>0.1</speed>
</trkpt>
<trkpt lat="35.916849" lon="139.477479">
<ele>36.0</ele>
<time>2026-04-03T02:23:32Z</time>
<speed>3.6</speed>
</trkpt>
<trkpt lat="35.916823" lon="139.477438">
<ele>36.0</ele>
<time>2026-04-03T02:23:33Z</time>
<speed>4.0</speed>
</trkpt>
<trkpt lat="35.916781" lon="139.477358">
<ele>36.0</ele>
<time>2026-04-03T02:23:34Z</time>
<speed>4.7</speed>
</trkpt>
<trkpt lat="35.916729" lon="139.477229">
<ele>36.0</ele>
<time>2026-04-03T02:23:39Z</time>
<speed>4.3</speed>
</trkpt>
<trkpt lat="35.916677" lon="139.477162">
<ele>36.0</ele>
<time>2026-04-03T02:23:41Z</time>
<speed>4.9</speed>
</trkpt>
<trkpt lat="35.916569" lon="139.477165">
<ele>36.0</ele>
<time>2026-04-03T02:23:43Z</time>
<speed>4.7</speed>
</trkpt>
<trkpt lat="35.916449" lon="139.477146">
<ele>36.0</ele>
<time>2026-04-03T02:23:48Z</time>
<speed>4.3</speed>
</trkpt>
<trkpt lat="35.916358" lon="139.477138">
<ele>36.2</ele>
<time>2026-04-03T02:23:50Z</time>
<speed>4.3</speed>
</trkpt>
<trkpt lat="35.916275" lon="139.477127">
<ele>36.2</ele>
<time>2026-04-03T02:23:52Z</time>
<speed>4.6</speed>
</trkpt>
<trkpt lat="35.916182" lon="139.477114">
<ele>36.2</ele>
<time>2026-04-03T02:23:54Z</time>
<speed>5.1</speed>
</trkpt>
<trkpt lat="35.915982" lon="139.477087">
<ele>36.2</ele>
<time>2026-04-03T02:23:55Z</time>
<speed>5.8</speed>
</trkpt>
<trkpt lat="35.915865" lon="139.477076">
<ele>36.2</ele>
<time>2026-04-03T02:23:59Z</time>
<speed>6.1</speed>
</trkpt>
<trkpt lat="35.915689" lon="139.477071">
<ele>36.2</ele>
<time>2026-04-03T02:24:00Z</time>
<speed>5.5</speed>
</trkpt>
<trkpt lat="35.915324" lon="139.477060">
<ele>36.4</ele>
<time>2026-04-03T02:24:10Z</time>
<speed>4.9</speed>
</trkpt>
<trkpt lat="35.915018" lon="139.477063">
<ele>36.8</ele>
<time>2026-04-03T02:24:17Z</time>
<speed>4.0</speed>
</trkpt>
<trkpt lat="35.914909" lon="139.477055">
<ele>36.8</ele>
<time>2026-04-03T02:24:18Z</time>
<speed>4.2</speed>
</trkpt>
<trkpt lat="35.914700" lon="139.477071">
<ele>37.0</ele>
<time>2026-04-03T02:24:22Z</time>
<speed>3.1</speed>
</trkpt>
<trkpt lat="35.914592" lon="139.477170">
<ele>37.2</ele>
<time>2026-04-03T02:24:27Z</time>
<speed>3.0</speed>
</trkpt>
<trkpt lat="35.914507" lon="139.477244">
<ele>37.4</ele>
<time>2026-04-03T02:24:35Z</time>
<speed>3.0</speed>
</trkpt>
</trkseg>
</trk>
</gpx>
